Wetterdaten: Donnerstag, 18.11.2021
Datum Zeit Temp. Aussen Temp. o. S. Temp +5cm Feuchte Auss Luftdruck Regen Sonnenschein Regendauer Solar Windben Empfang
18.11.2021 00:00 5,1 C 4,4 C 3,9 C 97 % 1027,2 hPa 0,0 l/m 0 min 0 min 0 W/m 0,0 km/h (0 Bft) 95,74 %
18.11.2021 00:02 5,0 C 4,4 C 3,9 C 97 % 1027,2 hPa 0,0 l/m 0 min 0 min 0 W/m 0,0 km/h (0 Bft) 97,30 %
18.11.2021 00:04 5,1 C 4,4 C 3,9 C 97 % 1027,2 hPa 0,0 l/m 0 min 0 min 0 W/m 0,0 km/h (0 Bft) 93,62 %
18.11.2021 00:08 5,1 C 4,4 C 3,9 C 97 % 1027,2 hPa 0,0 l/m 0 min 0 min 0 W/m 0,0 km/h (0 Bft) 95,70 %
18.11.2021 00:10 5,1 C 4,4 C 3,9 C 97 % 1027,1 hPa 0,0 l/m 0 min 0 min 0 W/m 0,0 km/h (0 Bft) 93,62 %
18.11.2021 00:12 5,1 C 4,4 C 3,9 C 97 % 1027,1 hPa 0,0 l/m 0 min 0 min 0 W/m 0,0 km/h (0 Bft) 96,00 %
18.11.2021 00:14 5,1 C 4,4 C 3,9 C 97 % 1027,1 hPa 0,0 l/m 0 min 0 min 0 W/m 0,0 km/h (0 Bft) 93,62 %
18.11.2021 00:16 5,1 C 4,4 C 3,9 C 97 % 1027,2 hPa 0,0 l/m 0 min 0 min 0 W/m 0,0 km/h (0 Bft) 93,62 %
18.11.2021 00:18 5,1 C 4,4 C 3,9 C 97 % 1027,2 hPa 0,0 l/m 0 min 0 min 0 W/m 0,0 km/h (0 Bft) 95,74 %
18.11.2021 00:20 5,1 C 4,4 C 3,9 C 97 % 1027,2 hPa 0,0 l/m 0 min 0 min 0 W/m 0,0 km/h (0 Bft) 97,83 %
18.11.2021 00:22 5,1 C 4,4 C 3,9 C 97 % 1027,3 hPa 0,0 l/m 0 min 0 min 0 W/m 0,0 km/h (0 Bft) 97,87 %
18.11.2021 00:24 5,1 C 4,4 C 3,9 C 97 % 1027,4 hPa 0,0 l/m 0 min 0 min 0 W/m 0,0 km/h (0 Bft) 100,00 %
18.11.2021 00:26 5,1 C 4,4 C 3,9 C 97 % 1027,4 hPa 0,0 l/m 0 min 0 min 0 W/m 0,0 km/h (0 Bft) 97,87 %
18.11.2021 00:28 5,0 C 4,4 C 3,9 C 97 % 1027,4 hPa 0,0 l/m 0 min 0 min 0 W/m 0,0 km/h (0 Bft) 97,87 %
18.11.2021 00:30 5,0 C 4,4 C 3,9 C 97 % 1027,3 hPa 0,0 l/m 0 min 0 min 0 W/m 0,0 km/h (0 Bft) 100,00 %
18.11.2021 00:32 5,0 C 4,4 C 3,9 C 97 % 1027,4 hPa 0,0 l/m 0 min 0 min 0 W/m 0,0 km/h (0 Bft) 100,00 %
18.11.2021 00:34 5,0 C 4,4 C 3,9 C 97 % 1027,3 hPa 0,0 l/m 0 min 0 min 0 W/m 0,0 km/h (0 Bft) 97,87 %
18.11.2021 00:36 5,0 C 4,4 C 3,9 C 97 % 1027,3 hPa 0,0 l/m 0 min 0 min 0 W/m 0,0 km/h (0 Bft) 100,00 %
18.11.2021 00:38 5,0 C 4,4 C 3,9 C 97 % 1027,2 hPa 0,0 l/m 0 min 0 min 0 W/m 0,0 km/h (0 Bft) 100,00 %
18.11.2021 00:40 5,0 C 4,4 C 3,9 C 97 % 1027,1 hPa 0,0 l/m 0 min 0 min 0 W/m 0,0 km/h (0 Bft) 100,00 %
18.11.2021 00:42 5,0 C 4,4 C 3,9 C 97 % 1027,1 hPa 0,0 l/m 0 min 0 min 0 W/m 0,0 km/h (0 Bft) 100,00 %
18.11.2021 00:44 5,0 C 4,4 C 3,9 C 97 % 1027,2 hPa 0,0 l/m 0 min 0 min 0 W/m 0,0 km/h (0 Bft) 100,00 %
18.11.2021 00:46 5,0 C 4,4 C 3,9 C 97 % 1027,3 hPa 0,0 l/m 0 min 0 min 0 W/m 0,0 km/h (0 Bft) 95,74 %
18.11.2021 00:48 5,0 C 4,4 C 3,9 C 97 % 1027,3 hPa 0,0 l/m 0 min 0 min 0 W/m 0,0 km/h (0 Bft) 100,00 %
18.11.2021 00:50 5,0 C 4,4 C 3,9 C 97 % 1027,3 hPa 0,0 l/m 0 min 0 min 0 W/m 0,0 km/h (0 Bft) 100,00 %
18.11.2021 00:52 5,1 C 4,4 C 4,4 C 97 % 1027,3 hPa 0,0 l/m 0 min 0 min 0 W/m 0,0 km/h (0 Bft) 97,83 %
18.11.2021 00:54 5,1 C 4,4 C 4,4 C 97 % 1027,3 hPa 0,0 l/m 0 min 0 min 0 W/m 0,0 km/h (0 Bft) 97,87 %
18.11.2021 00:56 5,1 C 4,4 C 4,4 C 97 % 1027,2 hPa 0,0 l/m 0 min 0 min 0 W/m 0,0 km/h (0 Bft) 95,74 %
18.11.2021 00:58 5,1 C 4,4 C 4,4 C 97 % 1027,0 hPa 0,0 l/m 0 min 0 min 0 W/m 6,4 km/h (2 Bft) 97,87 %
18.11.2021 01:00 5,1 C 4,4 C 4,4 C 97 % 1027,0 hPa 0,0 l/m 0 min 0 min 0 W/m 0,0 km/h (0 Bft) 95,35 %
18.11.2021 01:02 5,2 C 5,0 C 4,4 C 97 % 1027,2 hPa 0,0 l/m 0 min 0 min 0 W/m 0,0 km/h (0 Bft) 95,74 %
18.11.2021 01:04 5,3 C 5,0 C 4,4 C 97 % 1027,2 hPa 0,0 l/m 0 min 0 min 0 W/m 0,0 km/h (0 Bft) 97,87 %
18.11.2021 01:06 5,3 C 5,0 C 4,4 C 97 % 1027,2 hPa 0,0 l/m 0 min 0 min 0 W/m 0,0 km/h (0 Bft) 95,65 %
18.11.2021 01:08 5,3 C 5,0 C 4,4 C 97 % 1027,1 hPa 0,0 l/m 0 min 0 min 0 W/m 0,0 km/h (0 Bft) 97,87 %
18.11.2021 01:10 5,3 C 5,0 C 4,4 C 97 % 1027,1 hPa 0,0 l/m 0 min 0 min 0 W/m 0,0 km/h (0 Bft) 97,87 %
18.11.2021 01:12 5,4 C 5,0 C 4,4 C 97 % 1027,2 hPa 0,0 l/m 0 min 0 min 0 W/m 0,0 km/h (0 Bft) 95,74 %
18.11.2021 01:14 5,4 C 5,0 C 4,4 C 97 % 1027,3 hPa 0,0 l/m 0 min 0 min 0 W/m 0,0 km/h (0 Bft) 97,87 %
18.11.2021 01:16 5,4 C 5,0 C 4,4 C 97 % 1027,3 hPa 0,0 l/m 0 min 0 min 0 W/m 0,0 km/h (0 Bft) 95,92 %
18.11.2021 01:18 5,4 C 5,0 C 4,4 C 97 % 1027,2 hPa 0,0 l/m 0 min 0 min 0 W/m 0,0 km/h (0 Bft) 97,87 %
18.11.2021 01:20 5,4 C 5,0 C 4,4 C 97 % 1027,2 hPa 0,0 l/m 0 min 0 min 0 W/m 6,4 km/h (2 Bft) 95,74 %
18.11.2021 01:22 5,4 C 5,0 C 4,4 C 97 % 1027,3 hPa 0,0 l/m 0 min 0 min 0 W/m 6,4 km/h (2 Bft) 100,00 %
18.11.2021 01:24 5,4 C 5,0 C 4,4 C 97 % 1027,3 hPa 0,0 l/m 0 min 0 min 0 W/m 6,4 km/h (2 Bft) 100,00 %
18.11.2021 01:26 5,4 C 5,0 C 4,4 C 97 % 1027,2 hPa 0,0 l/m 0 min 0 min 0 W/m 3,2 km/h (1 Bft) 100,00 %
18.11.2021 01:28 5,4 C 5,0 C 4,4 C 97 % 1027,3 hPa 0,0 l/m 0 min 0 min 0 W/m 3,2 km/h (1 Bft) 100,00 %
18.11.2021 01:30 5,4 C 5,0 C 4,4 C 97 % 1027,3 hPa 0,0 l/m 0 min 0 min 0 W/m 3,2 km/h (1 Bft) 100,00 %
18.11.2021 01:32 5,4 C 5,0 C 4,4 C 97 % 1027,2 hPa 0,0 l/m 0 min 0 min 0 W/m 3,2 km/h (1 Bft) 100,00 %
18.11.2021 01:34 5,4 C 5,0 C 4,4 C 97 % 1027,1 hPa 0,0 l/m 0 min 0 min 0 W/m 9,7 km/h (2 Bft) 100,00 %
18.11.2021 01:36 5,4 C 5,0 C 4,4 C 97 % 1027,1 hPa 0,0 l/m 0 min 0 min 0 W/m 3,2 km/h (1 Bft) 97,87 %
18.11.2021 01:38 5,4 C 5,0 C 4,4 C 97 % 1027,1 hPa 0,0 l/m 0 min 0 min 0 W/m 6,4 km/h (2 Bft) 100,00 %
18.11.2021 01:40 5,4 C 5,0 C 4,4 C 97 % 1027,1 hPa 0,0 l/m 0 min 0 min 0 W/m 9,7 km/h (2 Bft) 100,00 %
18.11.2021 01:42 5,4 C 5,0 C 4,4 C 97 % 1027,2 hPa 0,0 l/m 0 min 0 min 0 W/m 6,4 km/h (2 Bft) 100,00 %
18.11.2021 01:44 5,5 C 5,0 C 4,4 C 97 % 1027,2 hPa 0,0 l/m 0 min 0 min 0 W/m 6,4 km/h (2 Bft) 100,00 %
18.11.2021 01:46 5,5 C 5,0 C 4,4 C 97 % 1027,2 hPa 0,0 l/m 0 min 0 min 0 W/m 6,4 km/h (2 Bft) 100,00 %
18.11.2021 01:48 5,5 C 5,0 C 4,4 C 97 % 1027,2 hPa 0,0 l/m 0 min 0 min 0 W/m 9,7 km/h (2 Bft) 100,00 %
18.11.2021 01:50 5,5 C 5,0 C 4,4 C 97 % 1027,3 hPa 0,0 l/m 0 min 0 min 0 W/m 9,7 km/h (2 Bft) 100,00 %
18.11.2021 01:52 5,5 C 5,0 C 4,4 C 97 % 1027,3 hPa 0,0 l/m 0 min 0 min 0 W/m 3,2 km/h (1 Bft) 97,83 %
18.11.2021 01:54 5,5 C 5,0 C 4,4 C 97 % 1027,3 hPa 0,0 l/m 0 min 0 min 0 W/m 3,2 km/h (1 Bft) 97,87 %
18.11.2021 01:56 5,5 C 5,0 C 4,4 C 97 % 1027,2 hPa 0,0 l/m 0 min 0 min 0 W/m 6,4 km/h (2 Bft) 100,00 %
18.11.2021 01:58 5,5 C 5,0 C 4,4 C 97 % 1027,3 hPa 0,0 l/m 0 min 0 min 0 W/m 9,7 km/h (2 Bft) 100,00 %
18.11.2021 02:00 5,5 C 5,0 C 4,4 C 97 % 1027,3 hPa 0,0 l/m 0 min 0 min 0 W/m 3,2 km/h (1 Bft) 100,00 %
18.11.2021 02:02 5,5 C 5,0 C 4,4 C 97 % 1027,3 hPa 0,0 l/m 0 min 0 min 0 W/m 9,7 km/h (2 Bft) 95,74 %
18.11.2021 02:04 5,5 C 5,0 C 4,4 C 97 % 1027,4 hPa 0,0 l/m 0 min 0 min 0 W/m 12,9 km/h (3 Bft) 97,83 %
18.11.2021 02:06 5,5 C 5,0 C 4,4 C 97 % 1027,4 hPa 0,0 l/m 0 min 0 min 0 W/m 6,4 km/h (2 Bft) 97,87 %
18.11.2021 02:08 5,5 C 5,0 C 4,4 C 97 % 1027,3 hPa 0,0 l/m 0 min 0 min 0 W/m 6,4 km/h (2 Bft) 97,87 %
18.11.2021 02:10 5,5 C 5,0 C 4,4 C 97 % 1027,3 hPa 0,0 l/m 0 min 0 min 0 W/m 3,2 km/h (1 Bft) 97,87 %
18.11.2021 02:12 5,5 C 5,0 C 4,4 C 97 % 1027,4 hPa 0,0 l/m 0 min 0 min 0 W/m 12,9 km/h (3 Bft) 97,87 %
18.11.2021 02:14 5,5 C 5,0 C 4,4 C 97 % 1027,4 hPa 0,0 l/m 0 min 0 min 0 W/m 6,4 km/h (2 Bft) 97,87 %
18.11.2021 02:16 5,5 C 5,0 C 4,4 C 97 % 1027,5 hPa 0,0 l/m 0 min 0 min 0 W/m 6,4 km/h (2 Bft) 97,83 %
18.11.2021 02:18 5,5 C 5,0 C 4,4 C 97 % 1027,5 hPa 0,0 l/m 0 min 0 min 0 W/m 6,4 km/h (2 Bft) 97,87 %
18.11.2021 02:20 5,5 C 5,0 C 4,4 C 97 % 1027,5 hPa 0,0 l/m 0 min 0 min 0 W/m 9,7 km/h (2 Bft) 97,87 %
18.11.2021 02:22 5,4 C 5,0 C 4,4 C 97 % 1027,5 hPa 0,0 l/m 0 min 0 min 0 W/m 6,4 km/h (2 Bft) 98,00 %
18.11.2021 02:24 5,5 C 5,0 C 4,4 C 97 % 1027,5 hPa 0,0 l/m 0 min 0 min 0 W/m 9,7 km/h (2 Bft) 97,87 %
18.11.2021 02:26 5,4 C 5,0 C 4,4 C 97 % 1027,5 hPa 0,0 l/m 0 min 0 min 0 W/m 12,9 km/h (3 Bft) 97,83 %
18.11.2021 02:28 5,4 C 5,0 C 4,4 C 97 % 1027,5 hPa 0,0 l/m 0 min 0 min 0 W/m 6,4 km/h (2 Bft) 97,87 %
18.11.2021 02:30 5,4 C 5,0 C 4,4 C 97 % 1027,5 hPa 0,0 l/m 0 min 0 min 0 W/m 6,4 km/h (2 Bft) 95,83 %
18.11.2021 02:32 5,4 C 5,0 C 4,4 C 97 % 1027,5 hPa 0,0 l/m 0 min 0 min 0 W/m 9,7 km/h (2 Bft) 97,87 %
18.11.2021 02:34 5,4 C 4,4 C 4,4 C 97 % 1027,6 hPa 0,0 l/m 0 min 0 min 0 W/m 9,7 km/h (2 Bft) 95,74 %
18.11.2021 02:36 5,4 C 5,0 C 4,4 C 97 % 1027,6 hPa 0,0 l/m 0 min 0 min 0 W/m 6,4 km/h (2 Bft) 93,62 %
18.11.2021 02:38 5,4 C 4,4 C 4,4 C 97 % 1027,6 hPa 0,0 l/m 0 min 0 min 0 W/m 6,4 km/h (2 Bft) 93,48 %
18.11.2021 02:40 5,4 C 4,4 C 4,4 C 97 % 1027,6 hPa 0,0 l/m 0 min 0 min 0 W/m 3,2 km/h (1 Bft) 93,02 %
18.11.2021 02:42 5,4 C 4,4 C 4,4 C 97 % 1027,6 hPa 0,0 l/m 0 min 0 min 0 W/m 6,4 km/h (2 Bft) 96,00 %
18.11.2021 02:44 5,4 C 4,4 C 4,4 C 97 % 1027,7 hPa 0,0 l/m 0 min 0 min 0 W/m 9,7 km/h (2 Bft) 95,74 %
18.11.2021 02:46 5,4 C 4,4 C 4,4 C 97 % 1027,6 hPa 0,0 l/m 0 min 0 min 0 W/m 6,4 km/h (2 Bft) 93,62 %
18.11.2021 02:48 5,4 C 5,0 C 4,4 C 97 % 1027,6 hPa 0,0 l/m 0 min 0 min 0 W/m 6,4 km/h (2 Bft) 95,74 %
18.11.2021 02:50 5,4 C 5,0 C 4,4 C 97 % 1027,6 hPa 0,0 l/m 0 min 0 min 0 W/m 9,7 km/h (2 Bft) 93,48 %
18.11.2021 02:52 5,4 C 5,0 C 4,4 C 97 % 1027,6 hPa 0,0 l/m 0 min 0 min 0 W/m 9,7 km/h (2 Bft) 95,74 %
18.11.2021 02:54 5,4 C 5,0 C 4,4 C 97 % 1027,6 hPa 0,0 l/m 0 min 0 min 0 W/m 16,1 km/h (3 Bft) 82,98 %
18.11.2021 02:56 5,4 C 5,0 C 4,4 C 97 % 1027,6 hPa 0,0 l/m 0 min 0 min 0 W/m 9,7 km/h (2 Bft) 60,98 %
18.11.2021 02:58 5,4 C 5,0 C 4,4 C 97 % 1027,5 hPa 0,0 l/m 0 min 0 min 0 W/m 9,7 km/h (2 Bft) 95,74 %
18.11.2021 03:00 5,4 C 5,0 C 4,4 C 97 % 1027,5 hPa 0,0 l/m 0 min 0 min 0 W/m 12,9 km/h (3 Bft) 95,65 %
18.11.2021 03:02 5,4 C 5,0 C 4,4 C 97 % 1027,6 hPa 0,0 l/m 0 min 0 min 0 W/m 3,2 km/h (1 Bft) 95,74 %
18.11.2021 03:04 5,4 C 5,0 C 4,4 C 97 % 1027,5 hPa 0,0 l/m 0 min 0 min 0 W/m 6,4 km/h (2 Bft) 95,74 %
18.11.2021 03:06 5,4 C 5,0 C 4,4 C 97 % 1027,5 hPa 0,0 l/m 0 min 0 min 0 W/m 9,7 km/h (2 Bft) 95,74 %
18.11.2021 03:08 5,4 C 5,0 C 4,4 C 97 % 1027,5 hPa 0,0 l/m 0 min 0 min 0 W/m 6,4 km/h (2 Bft) 91,49 %
18.11.2021 03:10 5,4 C 5,0 C 4,4 C 97 % 1027,5 hPa 0,0 l/m 0 min 0 min 0 W/m 6,4 km/h (2 Bft) 93,75 %
18.11.2021 03:12 5,4 C 5,0 C 4,4 C 97 % 1027,6 hPa 0,0 l/m 0 min 0 min 0 W/m 6,4 km/h (2 Bft) 95,65 %
18.11.2021 03:14 5,4 C 5,0 C 4,4 C 97 % 1027,6 hPa 0,0 l/m 0 min 0 min 0 W/m 6,4 km/h (2 Bft) 95,74 %
18.11.2021 03:16 5,4 C 5,0 C 4,4 C 97 % 1027,6 hPa 0,2 l/m 0 min 0 min 0 W/m 3,2 km/h (1 Bft) 95,74 %
18.11.2021 03:18 5,4 C 4,4 C 4,4 C 97 % 1027,7 hPa 0,0 l/m 0 min 0 min 0 W/m 3,2 km/h (1 Bft) 97,87 %
18.11.2021 03:20 5,4 C 4,4 C 4,4 C 97 % 1027,7 hPa 0,0 l/m 0 min 0 min 0 W/m 3,2 km/h (1 Bft) 97,87 %
18.11.2021 03:22 5,4 C 4,4 C 4,4 C 97 % 1027,7 hPa 0,0 l/m 0 min 0 min 0 W/m 3,2 km/h (1 Bft) 97,87 %
18.11.2021 03:24 5,3 C 4,4 C 4,4 C 97 % 1027,7 hPa 0,0 l/m 0 min 0 min 0 W/m 3,2 km/h (1 Bft) 95,65 %
18.11.2021 03:26 5,3 C 4,4 C 4,4 C 97 % 1027,8 hPa 0,0 l/m 0 min 0 min 0 W/m 3,2 km/h (1 Bft) 95,35 %
18.11.2021 03:28 5,3 C 4,4 C 4,4 C 97 % 1027,9 hPa 0,0 l/m 0 min 0 min 0 W/m 0,0 km/h (0 Bft) 100,00 %
18.11.2021 03:30 5,3 C 4,4 C 4,4 C 97 % 1027,9 hPa 0,0 l/m 0 min 0 min 0 W/m 3,2 km/h (1 Bft) 100,00 %
18.11.2021 03:32 5,3 C 4,4 C 4,4 C 97 % 1028,0 hPa 0,0 l/m 0 min 0 min 0 W/m 6,4 km/h (2 Bft) 100,00 %
18.11.2021 03:34 5,3 C 4,4 C 4,4 C 97 % 1028,0 hPa 0,0 l/m 0 min 0 min 0 W/m 3,2 km/h (1 Bft) 97,87 %
18.11.2021 03:36 5,2 C 4,4 C 4,4 C 97 % 1028,0 hPa 0,0 l/m 0 min 0 min 0 W/m 3,2 km/h (1 Bft) 100,00 %
18.11.2021 03:38 5,2 C 4,4 C 4,4 C 97 % 1028,1 hPa 0,0 l/m 0 min 0 min 0 W/m 3,2 km/h (1 Bft) 100,00 %
18.11.2021 03:40 5,1 C 4,4 C 4,4 C 97 % 1028,0 hPa 0,0 l/m 0 min 0 min 0 W/m 3,2 km/h (1 Bft) 100,00 %
18.11.2021 03:42 5,1 C 4,4 C 4,4 C 97 % 1027,9 hPa 0,0 l/m 0 min 0 min 0 W/m 6,4 km/h (2 Bft) 97,87 %
18.11.2021 03:44 5,1 C 4,4 C 4,4 C 97 % 1027,9 hPa 0,0 l/m 0 min 0 min 0 W/m 3,2 km/h (1 Bft) 100,00 %
18.11.2021 03:46 5,1 C 4,4 C 4,4 C 97 % 1027,9 hPa 0,0 l/m 0 min 0 min 0 W/m 3,2 km/h (1 Bft) 100,00 %
18.11.2021 03:48 5,1 C 4,4 C 4,4 C 97 % 1027,9 hPa 0,0 l/m 0 min 0 min 0 W/m 3,2 km/h (1 Bft) 100,00 %
18.11.2021 03:50 5,1 C 4,4 C 4,4 C 97 % 1028,0 hPa 0,0 l/m 0 min 0 min 0 W/m 3,2 km/h (1 Bft) 100,00 %
18.11.2021 03:52 5,1 C 4,4 C 4,4 C 97 % 1028,0 hPa 0,0 l/m 0 min 0 min 0 W/m 6,4 km/h (2 Bft) 97,67 %
18.11.2021 03:54 5,1 C 4,4 C 4,4 C 97 % 1028,0 hPa 0,0 l/m 0 min 0 min 0 W/m 3,2 km/h (1 Bft) 95,74 %
18.11.2021 03:56 5,1 C 4,4 C 4,4 C 97 % 1028,0 hPa 0,0 l/m 0 min 0 min 0 W/m 3,2 km/h (1 Bft) 100,00 %
18.11.2021 03:58 5,1 C 4,4 C 4,4 C 97 % 1027,9 hPa 0,0 l/m 0 min 0 min 0 W/m 3,2 km/h (1 Bft) 100,00 %
18.11.2021 04:00 5,1 C 4,4 C 4,4 C 97 % 1027,8 hPa 0,0 l/m 0 min 0 min 0 W/m 3,2 km/h (1 Bft) 97,83 %
18.11.2021 04:02 5,1 C 4,4 C 4,4 C 97 % 1027,9 hPa 0,0 l/m 0 min 0 min 0 W/m 6,4 km/h (2 Bft) 100,00 %
18.11.2021 04:04 5,1 C 4,4 C 4,4 C 97 % 1027,9 hPa 0,0 l/m 0 min 0 min 0 W/m 3,2 km/h (1 Bft) 97,87 %
18.11.2021 04:06 5,1 C 4,4 C 4,4 C 97 % 1027,9 hPa 0,0 l/m 0 min 0 min 0 W/m 3,2 km/h (1 Bft) 100,00 %
18.11.2021 04:08 5,1 C 4,4 C 4,4 C 97 % 1027,9 hPa 0,0 l/m 0 min 0 min 0 W/m 3,2 km/h (1 Bft) 95,74 %
18.11.2021 04:10 5,1 C 4,4 C 4,4 C 97 % 1027,9 hPa 0,0 l/m 0 min 0 min 0 W/m 3,2 km/h (1 Bft) 100,00 %
18.11.2021 04:12 5,1 C 4,4 C 4,4 C 97 % 1027,9 hPa 0,0 l/m 0 min 0 min 0 W/m 6,4 km/h (2 Bft) 100,00 %
18.11.2021 04:14 5,1 C 4,4 C 4,4 C 97 % 1028,0 hPa 0,0 l/m 0 min 0 min 0 W/m 6,4 km/h (2 Bft) 97,87 %
18.11.2021 04:16 5,1 C 4,4 C 4,4 C 97 % 1027,9 hPa 0,0 l/m 0 min 0 min 0 W/m 0,0 km/h (0 Bft) 100,00 %
18.11.2021 04:18 5,1 C 4,4 C 4,4 C 97 % 1028,0 hPa 0,0 l/m 0 min 0 min 0 W/m 0,0 km/h (0 Bft) 96,30 %
18.11.2021 04:20 5,1 C 4,4 C 4,4 C 97 % 1028,0 hPa 0,0 l/m 0 min 0 min 0 W/m 0,0 km/h (0 Bft) 100,00 %
18.11.2021 04:22 5,1 C 4,4 C 4,4 C 97 % 1028,0 hPa 0,0 l/m 0 min 0 min 0 W/m 0,0 km/h (0 Bft) 95,65 %
18.11.2021 04:24 5,1 C 4,4 C 4,4 C 97 % 1028,0 hPa 0,0 l/m 0 min 0 min 0 W/m 0,0 km/h (0 Bft) 100,00 %
18.11.2021 04:26 5,1 C 4,4 C 4,4 C 97 % 1028,0 hPa 0,0 l/m 0 min 0 min 0 W/m 0,0 km/h (0 Bft) 96,00 %
18.11.2021 04:28 5,1 C 4,4 C 4,4 C 97 % 1028,0 hPa 0,0 l/m 0 min 0 min 0 W/m 0,0 km/h (0 Bft) 91,49 %
18.11.2021 04:30 5,1 C 4,4 C 4,4 C 97 % 1027,9 hPa 0,0 l/m 0 min 0 min 0 W/m 0,0 km/h (0 Bft) 97,92 %
18.11.2021 04:32 5,1 C 4,4 C 4,4 C 97 % 1028,0 hPa 0,0 l/m 0 min 0 min 0 W/m 6,4 km/h (2 Bft) 93,62 %
18.11.2021 04:34 5,1 C 4,4 C 4,4 C 97 % 1028,0 hPa 0,0 l/m 0 min 0 min 0 W/m 6,4 km/h (2 Bft) 97,83 %
18.11.2021 04:36 5,2 C 4,4 C 4,4 C 97 % 1028,0 hPa 0,0 l/m 0 min 0 min 0 W/m 6,4 km/h (2 Bft) 97,67 %
18.11.2021 04:38 5,2 C 5,0 C 4,4 C 97 % 1027,9 hPa 0,0 l/m 0 min 0 min 0 W/m 3,2 km/h (1 Bft) 97,87 %
18.11.2021 04:40 5,3 C 5,0 C 4,4 C 97 % 1027,9 hPa 0,0 l/m 0 min 0 min 0 W/m 12,9 km/h (3 Bft) 96,00 %
18.11.2021 04:42 5,3 C 5,0 C 4,4 C 97 % 1027,9 hPa 0,0 l/m 0 min 0 min 0 W/m 12,9 km/h (3 Bft) 95,74 %
18.11.2021 04:44 5,3 C 5,0 C 4,4 C 97 % 1028,0 hPa 0,0 l/m 0 min 0 min 0 W/m 12,9 km/h (3 Bft) 95,83 %
18.11.2021 04:46 5,4 C 5,0 C 4,4 C 97 % 1028,0 hPa 0,0 l/m 0 min 0 min 0 W/m 6,4 km/h (2 Bft) 93,48 %
18.11.2021 04:48 5,4 C 5,0 C 4,4 C 97 % 1028,0 hPa 0,0 l/m 0 min 0 min 0 W/m 16,1 km/h (3 Bft) 95,74 %
18.11.2021 04:50 5,4 C 5,0 C 4,4 C 97 % 1028,0 hPa 0,0 l/m 0 min 0 min 0 W/m 12,9 km/h (3 Bft) 95,74 %
18.11.2021 04:52 5,4 C 5,0 C 4,4 C 97 % 1027,9 hPa 0,0 l/m 0 min 0 min 0 W/m 12,9 km/h (3 Bft) 95,74 %
18.11.2021 04:54 5,4 C 5,0 C 4,4 C 97 % 1028,0 hPa 0,0 l/m 0 min 0 min 0 W/m 12,9 km/h (3 Bft) 95,74 %
18.11.2021 04:56 5,4 C 5,0 C 4,4 C 97 % 1028,0 hPa 0,0 l/m 0 min 0 min 0 W/m 6,4 km/h (2 Bft) 95,65 %
18.11.2021 04:58 5,4 C 5,0 C 4,4 C 97 % 1028,1 hPa 0,0 l/m 0 min 0 min 0 W/m 9,7 km/h (2 Bft) 95,74 %
18.11.2021 05:00 5,4 C 5,0 C 4,4 C 97 % 1028,0 hPa 0,0 l/m 0 min 0 min 0 W/m 12,9 km/h (3 Bft) 97,87 %
18.11.2021 05:02 5,4 C 5,0 C 4,4 C 97 % 1027,9 hPa 0,0 l/m 0 min 0 min 0 W/m 19,3 km/h (3 Bft) 97,87 %
18.11.2021 05:04 5,4 C 5,0 C 4,4 C 97 % 1027,8 hPa 0,0 l/m 0 min 0 min 0 W/m 9,7 km/h (2 Bft) 57,45 %
18.11.2021 05:06 5,4 C 5,0 C 4,4 C 97 % 1027,9 hPa 0,0 l/m 0 min 0 min 0 W/m 16,1 km/h (3 Bft) 97,87 %
18.11.2021 05:08 5,4 C 5,0 C 4,4 C 97 % 1028,0 hPa 0,0 l/m 0 min 0 min 0 W/m 12,9 km/h (3 Bft) 100,00 %
18.11.2021 05:10 5,4 C 5,0 C 4,4 C 97 % 1028,1 hPa 0,0 l/m 0 min 0 min 0 W/m 9,7 km/h (2 Bft) 100,00 %
18.11.2021 05:12 5,4 C 5,0 C 4,4 C 97 % 1028,1 hPa 0,0 l/m 0 min 0 min 0 W/m 6,4 km/h (2 Bft) 97,87 %
18.11.2021 05:14 5,4 C 5,0 C 4,4 C 97 % 1028,0 hPa 0,0 l/m 0 min 0 min 0 W/m 6,4 km/h (2 Bft) 100,00 %
18.11.2021 05:16 5,4 C 5,0 C 4,4 C 97 % 1028,1 hPa 0,0 l/m 0 min 0 min 0 W/m 9,7 km/h (2 Bft) 100,00 %
18.11.2021 05:18 5,4 C 5,0 C 4,4 C 97 % 1028,1 hPa 0,0 l/m 0 min 0 min 0 W/m 9,7 km/h (2 Bft) 100,00 %
18.11.2021 05:20 5,4 C 4,4 C 4,4 C 97 % 1028,1 hPa 0,0 l/m 0 min 0 min 0 W/m 9,7 km/h (2 Bft) 100,00 %
18.11.2021 05:22 5,4 C 5,0 C 4,4 C 97 % 1028,1 hPa 0,0 l/m 0 min 0 min 0 W/m 12,9 km/h (3 Bft) 100,00 %
18.11.2021 05:24 5,4 C 5,0 C 4,4 C 97 % 1028,2 hPa 0,0 l/m 0 min 0 min 0 W/m 9,7 km/h (2 Bft) 95,35 %
18.11.2021 05:26 5,4 C 4,4 C 4,4 C 97 % 1028,2 hPa 0,0 l/m 0 min 0 min 0 W/m 3,2 km/h (1 Bft) 100,00 %
18.11.2021 05:28 5,4 C 4,4 C 4,4 C 97 % 1028,2 hPa 0,0 l/m 0 min 0 min 0 W/m 9,7 km/h (2 Bft) 100,00 %
18.11.2021 05:30 5,4 C 4,4 C 4,4 C 97 % 1028,2 hPa 0,0 l/m 0 min 0 min 0 W/m 6,4 km/h (2 Bft) 100,00 %
18.11.2021 05:32 5,3 C 4,4 C 4,4 C 97 % 1028,2 hPa 0,0 l/m 0 min 0 min 0 W/m 6,4 km/h (2 Bft) 100,00 %
18.11.2021 05:34 5,3 C 4,4 C 4,4 C 97 % 1028,2 hPa 0,0 l/m 0 min 0 min 0 W/m 6,4 km/h (2 Bft) 100,00 %
18.11.2021 05:36 5,3 C 4,4 C 4,4 C 97 % 1028,2 hPa 0,0 l/m 0 min 0 min 0 W/m 3,2 km/h (1 Bft) 100,00 %
18.11.2021 05:38 5,3 C 4,4 C 4,4 C 97 % 1028,2 hPa 0,0 l/m 0 min 0 min 0 W/m 12,9 km/h (3 Bft) 100,00 %
18.11.2021 05:40 5,3 C 4,4 C 4,4 C 97 % 1028,2 hPa 0,0 l/m 0 min 0 min 0 W/m 3,2 km/h (1 Bft) 100,00 %
18.11.2021 05:42 5,3 C 4,4 C 4,4 C 97 % 1028,3 hPa 0,0 l/m 0 min 0 min 0 W/m 6,4 km/h (2 Bft) 100,00 %
18.11.2021 05:44 5,3 C 4,4 C 4,4 C 97 % 1028,4 hPa 0,0 l/m 0 min 0 min 0 W/m 9,7 km/h (2 Bft) 95,74 %
18.11.2021 05:46 5,3 C 4,4 C 4,4 C 97 % 1028,4 hPa 0,0 l/m 0 min 0 min 0 W/m 3,2 km/h (1 Bft) 97,87 %
18.11.2021 05:48 5,3 C 4,4 C 4,4 C 97 % 1028,3 hPa 0,0 l/m 0 min 0 min 0 W/m 3,2 km/h (1 Bft) 97,67 %
18.11.2021 05:50 5,3 C 4,4 C 4,4 C 97 % 1028,3 hPa 0,0 l/m 0 min 0 min 0 W/m 6,4 km/h (2 Bft) 97,87 %
18.11.2021 05:52 5,3 C 4,4 C 4,4 C 97 % 1028,3 hPa 0,0 l/m 0 min 0 min 0 W/m 3,2 km/h (1 Bft) 93,62 %
18.11.2021 05:54 5,3 C 4,4 C 4,4 C 97 % 1028,3 hPa 0,0 l/m 0 min 0 min 0 W/m 3,2 km/h (1 Bft) 93,33 %
18.11.2021 05:56 5,2 C 4,4 C 4,4 C 97 % 1028,4 hPa 0,0 l/m 0 min 0 min 0 W/m 6,4 km/h (2 Bft) 93,62 %
18.11.2021 05:58 5,3 C 4,4 C 4,4 C 97 % 1028,3 hPa 0,0 l/m 0 min 0 min 0 W/m 3,2 km/h (1 Bft) 100,00 %
18.11.2021 06:00 5,3 C 4,4 C 4,4 C 97 % 1028,3 hPa 0,0 l/m 0 min 0 min 0 W/m 3,2 km/h (1 Bft) 95,74 %
18.11.2021 06:02 5,3 C 5,0 C 4,4 C 97 % 1028,4 hPa 0,0 l/m 0 min 0 min 0 W/m 6,4 km/h (2 Bft) 97,14 %
18.11.2021 06:04 5,3 C 5,0 C 4,4 C 97 % 1028,4 hPa 0,0 l/m 0 min 0 min 0 W/m 6,4 km/h (2 Bft) 96,43 %
18.11.2021 06:06 5,3 C 5,0 C 4,4 C 97 % 1028,4 hPa 0,0 l/m 0 min 0 min 0 W/m 6,4 km/h (2 Bft) 97,83 %
18.11.2021 06:08 5,3 C 5,0 C 4,4 C 97 % 1028,4 hPa 0,0 l/m 0 min 0 min 0 W/m 3,2 km/h (1 Bft) 98,00 %
18.11.2021 06:10 5,4 C 5,0 C 4,4 C 97 % 1028,4 hPa 0,0 l/m 0 min 0 min 0 W/m 3,2 km/h (1 Bft) 51,22 %
18.11.2021 06:12 5,4 C 5,0 C 4,4 C 97 % 1028,4 hPa 0,0 l/m 0 min 0 min 0 W/m 3,2 km/h (1 Bft) 97,87 %
18.11.2021 06:14 5,4 C 5,0 C 4,4 C 97 % 1028,3 hPa 0,0 l/m 0 min 0 min 0 W/m 6,4 km/h (2 Bft) 97,14 %
18.11.2021 06:16 5,4 C 5,0 C 5,0 C 97 % 1028,3 hPa 0,0 l/m 0 min 0 min 0 W/m 16,1 km/h (3 Bft) 96,23 %
18.11.2021 06:18 5,4 C 5,0 C 5,0 C 97 % 1028,4 hPa 0,0 l/m 0 min 0 min 0 W/m 6,4 km/h (2 Bft) 97,83 %
18.11.2021 06:20 5,4 C 5,0 C 5,0 C 97 % 1028,3 hPa 0,0 l/m 0 min 0 min 0 W/m 12,9 km/h (3 Bft) 95,74 %
18.11.2021 06:22 5,5 C 5,0 C 5,0 C 97 % 1028,4 hPa 0,0 l/m 0 min 0 min 0 W/m 12,9 km/h (3 Bft) 97,87 %
18.11.2021 06:24 5,5 C 5,0 C 5,0 C 97 % 1028,4 hPa 0,0 l/m 0 min 0 min 0 W/m 12,9 km/h (3 Bft) 97,87 %
18.11.2021 06:26 5,5 C 5,0 C 5,0 C 97 % 1028,3 hPa 0,0 l/m 0 min 0 min 0 W/m 6,4 km/h (2 Bft) 91,49 %
18.11.2021 06:28 5,5 C 5,0 C 5,0 C 97 % 1028,3 hPa 0,0 l/m 0 min 0 min 0 W/m 6,4 km/h (2 Bft) 93,62 %
18.11.2021 06:30 5,5 C 5,0 C 5,0 C 97 % 1028,2 hPa 0,0 l/m 0 min 0 min 0 W/m 9,7 km/h (2 Bft) 95,65 %
18.11.2021 06:32 5,5 C 5,0 C 5,0 C 97 % 1028,2 hPa 0,0 l/m 0 min 0 min 0 W/m 12,9 km/h (3 Bft) 97,56 %
18.11.2021 06:34 5,5 C 5,0 C 5,0 C 97 % 1028,2 hPa 0,0 l/m 0 min 0 min 0 W/m 12,9 km/h (3 Bft) 91,49 %
18.11.2021 06:36 5,5 C 5,0 C 5,0 C 97 % 1028,1 hPa 0,0 l/m 0 min 0 min 0 W/m 16,1 km/h (3 Bft) 94,34 %
18.11.2021 06:38 5,6 C 5,0 C 5,0 C 97 % 1028,1 hPa 0,0 l/m 0 min 0 min 0 W/m 16,1 km/h (3 Bft) 97,87 %
18.11.2021 06:40 5,6 C 5,0 C 5,0 C 97 % 1028,2 hPa 0,0 l/m 0 min 0 min 0 W/m 12,9 km/h (3 Bft) 98,00 %
18.11.2021 06:42 5,6 C 5,0 C 5,0 C 97 % 1028,1 hPa 0,0 l/m 0 min 0 min 0 W/m 12,9 km/h (3 Bft) 95,92 %
18.11.2021 06:44 5,6 C 5,0 C 5,0 C 97 % 1028,2 hPa 0,0 l/m 0 min 0 min 0 W/m 16,1 km/h (3 Bft) 94,29 %
18.11.2021 06:46 5,6 C 5,0 C 5,0 C 97 % 1028,1 hPa 0,0 l/m 0 min 0 min 0 W/m 16,1 km/h (3 Bft) 96,43 %
18.11.2021 06:48 5,6 C 5,6 C 5,0 C 97 % 1028,2 hPa 0,0 l/m 0 min 0 min 0 W/m 16,1 km/h (3 Bft) 93,62 %
18.11.2021 06:50 5,7 C 5,6 C 5,0 C 97 % 1028,1 hPa 0,0 l/m 0 min 0 min 0 W/m 19,3 km/h (3 Bft) 95,74 %
18.11.2021 06:52 5,7 C 5,6 C 5,0 C 97 % 1028,1 hPa 0,0 l/m 0 min 0 min 0 W/m 16,1 km/h (3 Bft) 93,88 %
18.11.2021 06:54 5,8 C 5,6 C 5,0 C 97 % 1028,1 hPa 0,0 l/m 0 min 0 min 0 W/m 16,1 km/h (3 Bft) 94,44 %
18.11.2021 06:56 5,7 C 5,6 C 5,0 C 97 % 1028,2 hPa 0,0 l/m 0 min 0 min 0 W/m 9,7 km/h (2 Bft) 96,36 %
18.11.2021 06:58 5,8 C 5,6 C 5,0 C 97 % 1028,2 hPa 0,0 l/m 0 min 0 min 0 W/m 19,3 km/h (3 Bft) 94,00 %
18.11.2021 07:00 5,8 C 5,6 C 5,0 C 97 % 1028,1 hPa 0,0 l/m 0 min 0 min 0 W/m 12,9 km/h (3 Bft) 97,87 %
18.11.2021 07:02 5,8 C 5,6 C 5,0 C 97 % 1028,1 hPa 0,0 l/m 0 min 0 min 0 W/m 6,4 km/h (2 Bft) 97,87 %
18.11.2021 07:04 5,8 C 5,6 C 5,0 C 97 % 1028,1 hPa 0,0 l/m 0 min 0 min 0 W/m 16,1 km/h (3 Bft) 97,96 %
18.11.2021 07:06 5,8 C 5,6 C 5,0 C 97 % 1028,1 hPa 0,0 l/m 0 min 0 min 0 W/m 12,9 km/h (3 Bft) 97,37 %
18.11.2021 07:08 5,8 C 5,0 C 5,0 C 97 % 1028,2 hPa 0,0 l/m 0 min 0 min 0 W/m 12,9 km/h (3 Bft) 97,87 %
18.11.2021 07:10 5,8 C 5,6 C 5,0 C 97 % 1028,2 hPa 0,0 l/m 0 min 0 min 0 W/m 19,3 km/h (3 Bft) 100,00 %
18.11.2021 07:12 5,8 C 5,6 C 5,0 C 97 % 1028,1 hPa 0,0 l/m 0 min 0 min 0 W/m 12,9 km/h (3 Bft) 97,87 %
18.11.2021 07:14 5,8 C 5,6 C 5,0 C 97 % 1028,2 hPa 0,0 l/m 0 min 0 min 0 W/m 12,9 km/h (3 Bft) 97,87 %
18.11.2021 07:16 5,8 C 5,6 C 5,0 C 97 % 1028,1 hPa 0,0 l/m 0 min 0 min 0 W/m 9,7 km/h (2 Bft) 97,83 %
18.11.2021 07:18 5,8 C 5,6 C 5,0 C 97 % 1028,1 hPa 0,0 l/m 0 min 0 min 0 W/m 12,9 km/h (3 Bft) 98,00 %
18.11.2021 07:20 5,8 C 5,6 C 5,0 C 97 % 1028,2 hPa 0,0 l/m 0 min 0 min 0 W/m 12,9 km/h (3 Bft) 100,00 %
18.11.2021 07:22 5,8 C 5,6 C 5,0 C 97 % 1028,3 hPa 0,0 l/m 0 min 0 min 0 W/m 12,9 km/h (3 Bft) 100,00 %
18.11.2021 07:24 5,8 C 5,6 C 5,0 C 97 % 1028,3 hPa 0,0 l/m 0 min 0 min 0 W/m 16,1 km/h (3 Bft) 100,00 %
18.11.2021 07:26 5,8 C 5,6 C 5,0 C 97 % 1028,3 hPa 0,0 l/m 0 min 0 min 0 W/m 12,9 km/h (3 Bft) 97,87 %
18.11.2021 07:28 5,9 C 5,6 C 5,0 C 97 % 1028,4 hPa 0,0 l/m 0 min 0 min 0 W/m 12,9 km/h (3 Bft) 100,00 %
18.11.2021 07:30 5,8 C 5,6 C 5,0 C 97 % 1028,4 hPa 0,0 l/m 0 min 0 min 0 W/m 12,9 km/h (3 Bft) 100,00 %
18.11.2021 07:32 5,9 C 5,6 C 5,0 C 97 % 1028,4 hPa 0,0 l/m 0 min 0 min 0 W/m 12,9 km/h (3 Bft) 100,00 %
18.11.2021 07:34 5,9 C 5,6 C 5,0 C 97 % 1028,3 hPa 0,0 l/m 0 min 0 min 0 W/m 6,4 km/h (2 Bft) 100,00 %
18.11.2021 07:36 5,9 C 5,6 C 5,0 C 97 % 1028,4 hPa 0,0 l/m 0 min 0 min 0 W/m 12,9 km/h (3 Bft) 100,00 %
18.11.2021 07:38 5,9 C 5,6 C 5,0 C 97 % 1028,4 hPa 0,0 l/m 0 min 0 min 0 W/m 6,4 km/h (2 Bft) 100,00 %
18.11.2021 07:40 5,9 C 5,6 C 5,0 C 97 % 1028,4 hPa 0,0 l/m 0 min 0 min 0 W/m 9,7 km/h (2 Bft) 100,00 %
18.11.2021 07:42 5,9 C 5,6 C 5,0 C 97 % 1028,5 hPa 0,0 l/m 0 min 0 min 0 W/m 6,4 km/h (2 Bft) 100,00 %
18.11.2021 07:46 5,9 C 5,6 C 5,0 C 97 % 1028,4 hPa 0,0 l/m 0 min 0 min 0 W/m 12,9 km/h (3 Bft) 100,00 %
18.11.2021 07:48 5,9 C 5,6 C 5,6 C 97 % 1028,4 hPa 0,0 l/m 0 min 0 min 0 W/m 9,7 km/h (2 Bft) 100,00 %
18.11.2021 07:50 5,9 C 5,6 C 5,6 C 97 % 1028,4 hPa 0,0 l/m 0 min 0 min 0 W/m 6,4 km/h (2 Bft) 100,00 %
18.11.2021 07:52 5,9 C 5,6 C 5,6 C 97 % 1028,5 hPa 0,0 l/m 0 min 0 min 0 W/m 9,7 km/h (2 Bft) 97,87 %
18.11.2021 07:54 5,9 C 5,6 C 5,6 C 97 % 1028,6 hPa 0,0 l/m 0 min 0 min 0 W/m 6,4 km/h (2 Bft) 100,00 %
18.11.2021 07:56 5,9 C 5,6 C 5,0 C 97 % 1028,7 hPa 0,0 l/m 0 min 0 min 0 W/m 3,2 km/h (1 Bft) 98,11 %
18.11.2021 07:58 5,9 C 5,6 C 5,0 C 97 % 1028,8 hPa 0,0 l/m 0 min 0 min 0 W/m 9,7 km/h (2 Bft) 100,00 %
18.11.2021 08:00 5,9 C 5,6 C 5,0 C 97 % 1028,8 hPa 0,0 l/m 0 min 0 min 0 W/m 3,2 km/h (1 Bft) 100,00 %
18.11.2021 08:02 6,0 C 5,6 C 5,6 C 97 % 1028,8 hPa 0,0 l/m 0 min 0 min 0 W/m 6,4 km/h (2 Bft) 100,00 %
18.11.2021 08:04 6,0 C 5,6 C 5,6 C 97 % 1028,7 hPa 0,0 l/m 0 min 0 min 0 W/m 6,4 km/h (2 Bft) 100,00 %
18.11.2021 08:06 6,0 C 5,6 C 5,6 C 97 % 1028,6 hPa 0,0 l/m 0 min 0 min 0 W/m 12,9 km/h (3 Bft) 100,00 %
18.11.2021 08:08 6,0 C 5,6 C 5,6 C 97 % 1028,5 hPa 0,0 l/m 0 min 0 min 2 W/m 12,9 km/h (3 Bft) 97,83 %
18.11.2021 08:10 6,0 C 5,6 C 5,6 C 97 % 1028,5 hPa 0,0 l/m 0 min 0 min 5 W/m 3,2 km/h (1 Bft) 100,00 %
18.11.2021 08:12 6,0 C 5,6 C 5,6 C 97 % 1028,5 hPa 0,0 l/m 0 min 0 min 6 W/m 19,3 km/h (3 Bft) 100,00 %
18.11.2021 08:14 6,0 C 5,6 C 5,6 C 97 % 1028,5 hPa 0,0 l/m 0 min 0 min 7 W/m 6,4 km/h (2 Bft) 97,87 %
18.11.2021 08:16 6,0 C 5,6 C 5,6 C 97 % 1028,6 hPa 0,0 l/m 0 min 0 min 8 W/m 12,9 km/h (3 Bft) 100,00 %
18.11.2021 08:18 6,0 C 5,6 C 5,6 C 97 % 1028,8 hPa 0,0 l/m 0 min 0 min 10 W/m 6,4 km/h (2 Bft) 97,87 %
18.11.2021 08:20 6,0 C 5,6 C 5,6 C 97 % 1028,9 hPa 0,0 l/m 0 min 0 min 11 W/m 9,7 km/h (2 Bft) 97,83 %
18.11.2021 08:22 6,0 C 5,6 C 5,6 C 97 % 1028,9 hPa 0,0 l/m 0 min 0 min 12 W/m 9,7 km/h (2 Bft) 97,87 %
18.11.2021 08:24 6,0 C 5,6 C 5,6 C 97 % 1028,9 hPa 0,0 l/m 0 min 0 min 13 W/m 9,7 km/h (2 Bft) 97,87 %
18.11.2021 08:26 6,0 C 5,6 C 5,6 C 97 % 1029,0 hPa 0,0 l/m 0 min 0 min 15 W/m 6,4 km/h (2 Bft) 97,87 %
18.11.2021 08:28 6,0 C 5,6 C 5,6 C 97 % 1029,0 hPa 0,0 l/m 0 min 0 min 17 W/m 9,7 km/h (2 Bft) 97,87 %
18.11.2021 08:30 6,1 C 5,6 C 5,6 C 97 % 1028,9 hPa 0,0 l/m 0 min 0 min 18 W/m 6,4 km/h (2 Bft) 42,86 %
18.11.2021 08:32 6,1 C 5,6 C 5,6 C 97 % 1028,9 hPa 0,0 l/m 0 min 0 min 19 W/m 12,9 km/h (3 Bft) 97,83 %
18.11.2021 08:34 6,1 C 5,6 C 5,6 C 97 % 1028,9 hPa 0,0 l/m 0 min 0 min 20 W/m 12,9 km/h (3 Bft) 97,87 %
18.11.2021 08:36 6,1 C 5,6 C 5,6 C 97 % 1028,9 hPa 0,0 l/m 0 min 0 min 21 W/m 9,7 km/h (2 Bft) 100,00 %
18.11.2021 08:38 6,1 C 5,6 C 5,6 C 97 % 1029,0 hPa 0,0 l/m 0 min 0 min 23 W/m 6,4 km/h (2 Bft) 97,87 %
18.11.2021 08:40 6,1 C 5,6 C 5,6 C 97 % 1029,0 hPa 0,0 l/m 0 min 0 min 25 W/m 6,4 km/h (2 Bft) 97,87 %
18.11.2021 08:42 6,2 C 6,1 C 5,6 C 97 % 1029,0 hPa 0,0 l/m 0 min 0 min 27 W/m 6,4 km/h (2 Bft) 95,74 %
18.11.2021 08:44 6,2 C 6,1 C 5,6 C 97 % 1029,0 hPa 0,0 l/m 0 min 0 min 28 W/m 9,7 km/h (2 Bft) 95,65 %
18.11.2021 08:46 6,2 C 6,1 C 5,6 C 97 % 1029,0 hPa 0,0 l/m 0 min 0 min 30 W/m 16,1 km/h (3 Bft) 97,87 %
18.11.2021 08:48 6,3 C 6,1 C 5,6 C 97 % 1029,0 hPa 0,0 l/m 0 min 0 min 32 W/m 6,4 km/h (2 Bft) 97,87 %
18.11.2021 08:50 6,3 C 6,1 C 5,6 C 97 % 1029,0 hPa 0,0 l/m 0 min 0 min 33 W/m 12,9 km/h (3 Bft) 95,74 %
18.11.2021 08:52 6,3 C 6,1 C 5,6 C 97 % 1029,0 hPa 0,0 l/m 0 min 0 min 33 W/m 9,7 km/h (2 Bft) 97,87 %
18.11.2021 08:54 6,3 C 6,1 C 5,6 C 97 % 1029,0 hPa 0,0 l/m 0 min 0 min 33 W/m 19,3 km/h (3 Bft) 95,74 %
18.11.2021 08:56 6,4 C 6,1 C 5,6 C 97 % 1029,0 hPa 0,0 l/m 0 min 0 min 32 W/m 16,1 km/h (3 Bft) 95,74 %
18.11.2021 08:58 6,4 C 6,1 C 5,6 C 97 % 1029,0 hPa 0,0 l/m 0 min 0 min 32 W/m 16,1 km/h (3 Bft) 97,83 %
18.11.2021 09:00 6,4 C 6,1 C 5,6 C 97 % 1029,0 hPa 0,0 l/m 0 min 0 min 32 W/m 19,3 km/h (3 Bft) 97,87 %
18.11.2021 09:02 6,4 C 6,1 C 5,6 C 97 % 1029,0 hPa 0,0 l/m 0 min 0 min 32 W/m 12,9 km/h (3 Bft) 95,74 %
18.11.2021 09:04 6,4 C 6,1 C 6,1 C 97 % 1029,0 hPa 0,0 l/m 0 min 0 min 33 W/m 16,1 km/h (3 Bft) 93,62 %
18.11.2021 09:06 6,4 C 6,1 C 6,1 C 97 % 1029,0 hPa 0,0 l/m 0 min 0 min 34 W/m 12,9 km/h (3 Bft) 98,28 %
18.11.2021 09:08 6,4 C 6,1 C 6,1 C 97 % 1029,0 hPa 0,0 l/m 0 min 0 min 35 W/m 16,1 km/h (3 Bft) 93,62 %
18.11.2021 09:10 6,5 C 6,1 C 6,1 C 97 % 1028,9 hPa 0,0 l/m 0 min 0 min 37 W/m 12,9 km/h (3 Bft) 97,14 %
18.11.2021 09:12 6,5 C 6,1 C 6,1 C 97 % 1028,9 hPa 0,0 l/m 0 min 0 min 37 W/m 12,9 km/h (3 Bft) 95,74 %
18.11.2021 09:14 6,5 C 6,1 C 6,1 C 97 % 1029,0 hPa 0,0 l/m 0 min 0 min 38 W/m 19,3 km/h (3 Bft) 93,62 %
18.11.2021 09:16 6,5 C 6,1 C 6,1 C 97 % 1029,0 hPa 0,0 l/m 0 min 0 min 39 W/m 12,9 km/h (3 Bft) 95,74 %
18.11.2021 09:18 6,5 C 6,1 C 6,1 C 97 % 1029,0 hPa 0,0 l/m 0 min 0 min 38 W/m 12,9 km/h (3 Bft) 91,49 %
18.11.2021 09:20 6,6 C 6,1 C 6,1 C 97 % 1029,1 hPa 0,0 l/m 0 min 0 min 37 W/m 9,7 km/h (2 Bft) 95,65 %
18.11.2021 09:22 6,6 C 6,1 C 6,1 C 97 % 1029,0 hPa 0,0 l/m 0 min 0 min 37 W/m 19,3 km/h (3 Bft) 95,74 %
18.11.2021 09:24 6,6 C 6,7 C 6,1 C 97 % 1029,0 hPa 0,0 l/m 0 min 0 min 37 W/m 19,3 km/h (3 Bft) 95,74 %
18.11.2021 09:26 6,6 C 6,7 C 6,1 C 96 % 1029,0 hPa 0,0 l/m 0 min 0 min 43 W/m 12,9 km/h (3 Bft) 95,74 %
18.11.2021 09:28 6,6 C 6,7 C 6,1 C 96 % 1029,0 hPa 0,0 l/m 0 min 0 min 47 W/m 12,9 km/h (3 Bft) 93,62 %
18.11.2021 09:30 6,7 C 6,7 C 6,1 C 97 % 1029,1 hPa 0,0 l/m 0 min 0 min 52 W/m 9,7 km/h (2 Bft) 93,48 %
18.11.2021 09:32 6,7 C 6,7 C 6,1 C 97 % 1029,1 hPa 0,0 l/m 0 min 0 min 54 W/m 16,1 km/h (3 Bft) 95,74 %
18.11.2021 09:34 6,8 C 6,7 C 6,1 C 96 % 1029,2 hPa 0,0 l/m 0 min 0 min 57 W/m 12,9 km/h (3 Bft) 93,62 %
18.11.2021 09:36 6,8 C 6,7 C 6,1 C 96 % 1029,2 hPa 0,0 l/m 0 min 0 min 61 W/m 12,9 km/h (3 Bft) 95,74 %
18.11.2021 09:38 6,8 C 6,7 C 6,1 C 96 % 1029,2 hPa 0,0 l/m 0 min 0 min 62 W/m 12,9 km/h (3 Bft) 97,87 %
18.11.2021 09:40 6,8 C 6,7 C 6,1 C 96 % 1029,3 hPa 0,0 l/m 0 min 0 min 63 W/m 9,7 km/h (2 Bft) 97,87 %
18.11.2021 09:42 6,9 C 6,7 C 6,1 C 96 % 1029,4 hPa 0,0 l/m 0 min 0 min 66 W/m 12,9 km/h (3 Bft) 97,87 %
18.11.2021 09:44 6,9 C 6,7 C 6,1 C 96 % 1029,5 hPa 0,0 l/m 0 min 0 min 68 W/m 16,1 km/h (3 Bft) 97,83 %
18.11.2021 09:46 6,9 C 6,7 C 6,7 C 96 % 1029,6 hPa 0,0 l/m 0 min 0 min 70 W/m 12,9 km/h (3 Bft) 95,74 %
18.11.2021 09:48 6,9 C 6,7 C 6,7 C 96 % 1029,5 hPa 0,0 l/m 0 min 0 min 66 W/m 12,9 km/h (3 Bft) 100,00 %
18.11.2021 09:50 6,9 C 6,7 C 6,7 C 96 % 1029,4 hPa 0,0 l/m 0 min 0 min 63 W/m 6,4 km/h (2 Bft) 97,87 %
18.11.2021 09:52 7,0 C 6,7 C 6,7 C 96 % 1029,4 hPa 0,0 l/m 0 min 0 min 62 W/m 9,7 km/h (2 Bft) 100,00 %
18.11.2021 09:54 7,0 C 7,2 C 6,7 C 96 % 1029,5 hPa 0,0 l/m 0 min 0 min 66 W/m 9,7 km/h (2 Bft) 100,00 %
18.11.2021 09:56 7,0 C 7,2 C 6,7 C 96 % 1029,5 hPa 0,0 l/m 0 min 0 min 70 W/m 6,4 km/h (2 Bft) 100,00 %
18.11.2021 09:58 7,0 C 7,2 C 6,7 C 96 % 1029,5 hPa 0,0 l/m 0 min 0 min 74 W/m 6,4 km/h (2 Bft) 100,00 %
18.11.2021 10:00 7,0 C 7,2 C 6,7 C 96 % 1029,4 hPa 0,0 l/m 0 min 0 min 74 W/m 16,1 km/h (3 Bft) 97,87 %
18.11.2021 10:02 7,0 C 7,2 C 6,7 C 96 % 1029,5 hPa 0,0 l/m 0 min 0 min 74 W/m 6,4 km/h (2 Bft) 97,87 %
18.11.2021 10:04 7,0 C 7,2 C 6,7 C 96 % 1029,5 hPa 0,0 l/m 0 min 0 min 78 W/m 12,9 km/h (3 Bft) 100,00 %
18.11.2021 10:06 7,1 C 7,2 C 6,7 C 96 % 1029,5 hPa 0,0 l/m 0 min 0 min 104 W/m 12,9 km/h (3 Bft) 100,00 %
18.11.2021 10:08 7,1 C 7,2 C 6,7 C 96 % 1029,4 hPa 0,0 l/m 0 min 0 min 112 W/m 25,7 km/h (4 Bft) 100,00 %
18.11.2021 10:10 7,1 C 7,2 C 6,7 C 95 % 1029,4 hPa 0,0 l/m 0 min 0 min 103 W/m 12,9 km/h (3 Bft) 97,14 %
18.11.2021 10:12 7,2 C 7,2 C 6,7 C 96 % 1029,5 hPa 0,0 l/m 0 min 0 min 94 W/m 19,3 km/h (3 Bft) 97,87 %
18.11.2021 10:14 7,2 C 7,2 C 6,7 C 96 % 1029,5 hPa 0,0 l/m 0 min 0 min 81 W/m 22,5 km/h (4 Bft) 97,87 %
18.11.2021 10:16 7,3 C 7,2 C 6,7 C 95 % 1029,5 hPa 0,0 l/m 0 min 0 min 79 W/m 16,1 km/h (3 Bft) 97,87 %
18.11.2021 10:18 7,3 C 7,2 C 6,7 C 95 % 1029,5 hPa 0,0 l/m 0 min 0 min 93 W/m 22,5 km/h (4 Bft) 97,83 %
18.11.2021 10:20 7,3 C 7,2 C 6,7 C 95 % 1029,5 hPa 0,0 l/m 0 min 0 min 99 W/m 16,1 km/h (3 Bft) 97,87 %
18.11.2021 10:22 7,3 C 7,8 C 6,7 C 95 % 1029,5 hPa 0,0 l/m 0 min 0 min 96 W/m 12,9 km/h (3 Bft) 97,87 %
18.11.2021 10:24 7,4 C 7,8 C 6,7 C 95 % 1029,6 hPa 0,0 l/m 0 min 0 min 117 W/m 9,7 km/h (2 Bft) 97,87 %
18.11.2021 10:26 7,4 C 7,8 C 6,7 C 95 % 1029,6 hPa 0,0 l/m 2 min 0 min 135 W/m 12,9 km/h (3 Bft) 97,87 %
18.11.2021 10:28 7,4 C 8,3 C 6,7 C 95 % 1029,5 hPa 0,0 l/m 2 min 0 min 156 W/m 16,1 km/h (3 Bft) 97,87 %
18.11.2021 10:30 7,5 C 8,3 C 6,7 C 95 % 1029,6 hPa 0,0 l/m 2 min 0 min 157 W/m 16,1 km/h (3 Bft) 97,83 %
18.11.2021 10:32 7,5 C 8,3 C 6,7 C 95 % 1029,5 hPa 0,0 l/m 2 min 0 min 146 W/m 19,3 km/h (3 Bft) 97,87 %
18.11.2021 10:34 7,5 C 8,9 C 6,7 C 95 % 1029,5 hPa 0,0 l/m 2 min 0 min 154 W/m 12,9 km/h (3 Bft) 97,87 %
18.11.2021 10:36 7,6 C 8,9 C 6,7 C 95 % 1029,5 hPa 0,0 l/m 2 min 0 min 157 W/m 19,3 km/h (3 Bft) 98,31 %
18.11.2021 10:38 7,6 C 9,4 C 6,7 C 94 % 1029,5 hPa 0,0 l/m 2 min 0 min 141 W/m 19,3 km/h (3 Bft) 97,83 %
18.11.2021 10:40 7,8 C 9,4 C 6,7 C 95 % 1029,4 hPa 0,0 l/m 2 min 0 min 152 W/m 25,7 km/h (4 Bft) 97,22 %
18.11.2021 10:42 7,8 C 9,4 C 6,7 C 94 % 1029,5 hPa 0,0 l/m 2 min 0 min 174 W/m 19,3 km/h (3 Bft) 95,65 %
18.11.2021 10:44 7,9 C 9,4 C 7,2 C 94 % 1029,5 hPa 0,0 l/m 2 min 0 min 150 W/m 12,9 km/h (3 Bft) 97,87 %
18.11.2021 10:46 7,9 C 9,4 C 7,2 C 94 % 1029,5 hPa 0,0 l/m 0 min 0 min 134 W/m 19,3 km/h (3 Bft) 97,87 %
18.11.2021 10:48 7,9 C 8,9 C 7,2 C 94 % 1029,6 hPa 0,0 l/m 2 min 0 min 144 W/m 16,1 km/h (3 Bft) 97,87 %
18.11.2021 10:50 8,0 C 8,9 C 7,2 C 94 % 1029,6 hPa 0,0 l/m 0 min 0 min 117 W/m 19,3 km/h (3 Bft) 97,87 %
18.11.2021 10:52 8,0 C 8,9 C 7,2 C 93 % 1029,6 hPa 0,0 l/m 0 min 0 min 115 W/m 16,1 km/h (3 Bft) 100,00 %
18.11.2021 10:54 8,1 C 8,9 C 7,2 C 93 % 1029,6 hPa 0,0 l/m 0 min 0 min 130 W/m 12,9 km/h (3 Bft) 100,00 %
18.11.2021 10:56 8,1 C 8,3 C 7,2 C 93 % 1029,7 hPa 0,0 l/m 0 min 0 min 89 W/m 25,7 km/h (4 Bft) 100,00 %
18.11.2021 10:58 8,1 C 8,3 C 7,2 C 93 % 1029,7 hPa 0,0 l/m 0 min 0 min 90 W/m 19,3 km/h (3 Bft) 97,87 %
18.11.2021 11:00 8,2 C 8,3 C 7,2 C 93 % 1029,7 hPa 0,0 l/m 0 min 0 min 110 W/m 16,1 km/h (3 Bft) 100,00 %
18.11.2021 11:02 8,3 C 8,3 C 7,2 C 93 % 1029,7 hPa 0,0 l/m 0 min 0 min 92 W/m 12,9 km/h (3 Bft) 100,00 %
18.11.2021 11:04 8,3 C 8,3 C 7,2 C 93 % 1029,7 hPa 0,0 l/m 0 min 0 min 87 W/m 6,4 km/h (2 Bft) 100,00 %
18.11.2021 11:06 8,3 C 8,3 C 7,2 C 93 % 1029,9 hPa 0,0 l/m 0 min 0 min 79 W/m 12,9 km/h (3 Bft) 98,31 %
18.11.2021 11:08 8,4 C 8,3 C 7,2 C 92 % 1029,9 hPa 0,0 l/m 0 min 0 min 71 W/m 25,7 km/h (4 Bft) 100,00 %
18.11.2021 11:10 8,4 C 8,3 C 7,2 C 92 % 1029,8 hPa 0,0 l/m 0 min 0 min 70 W/m 9,7 km/h (2 Bft) 97,83 %
18.11.2021 11:12 8,4 C 8,3 C 7,2 C 92 % 1029,8 hPa 0,0 l/m 0 min 0 min 69 W/m 16,1 km/h (3 Bft) 100,00 %
18.11.2021 11:14 8,4 C 8,3 C 7,2 C 92 % 1029,8 hPa 0,0 l/m 0 min 0 min 70 W/m 16,1 km/h (3 Bft) 100,00 %
18.11.2021 11:16 8,4 C 8,3 C 7,2 C 92 % 1029,8 hPa 0,0 l/m 0 min 0 min 70 W/m 6,4 km/h (2 Bft) 100,00 %
18.11.2021 11:18 8,5 C 8,3 C 7,2 C 92 % 1029,8 hPa 0,0 l/m 0 min 0 min 69 W/m 16,1 km/h (3 Bft) 100,00 %
18.11.2021 11:20 8,5 C 8,3 C 7,2 C 92 % 1029,8 hPa 0,0 l/m 0 min 0 min 66 W/m 12,9 km/h (3 Bft) 100,00 %
18.11.2021 11:22 8,5 C 8,3 C 7,2 C 91 % 1029,8 hPa 0,0 l/m 0 min 0 min 65 W/m 12,9 km/h (3 Bft) 100,00 %
18.11.2021 11:24 8,6 C 8,3 C 7,2 C 91 % 1029,8 hPa 0,0 l/m 0 min 0 min 67 W/m 12,9 km/h (3 Bft) 100,00 %
18.11.2021 11:26 8,6 C 8,9 C 7,8 C 91 % 1029,8 hPa 0,0 l/m 0 min 0 min 66 W/m 19,3 km/h (3 Bft) 100,00 %
18.11.2021 11:28 8,7 C 8,9 C 7,8 C 91 % 1029,8 hPa 0,0 l/m 0 min 0 min 64 W/m 19,3 km/h (3 Bft) 100,00 %
18.11.2021 11:30 8,7 C 8,9 C 7,8 C 91 % 1029,6 hPa 0,0 l/m 0 min 0 min 64 W/m 12,9 km/h (3 Bft) 97,87 %
18.11.2021 11:32 8,8 C 8,9 C 7,8 C 91 % 1029,6 hPa 0,0 l/m 0 min 0 min 71 W/m 19,3 km/h (3 Bft) 97,87 %
18.11.2021 11:34 8,8 C 8,9 C 7,8 C 91 % 1029,6 hPa 0,0 l/m 0 min 0 min 68 W/m 12,9 km/h (3 Bft) 100,00 %
18.11.2021 11:36 8,8 C 8,9 C 7,8 C 91 % 1029,7 hPa 0,0 l/m 0 min 0 min 69 W/m 6,4 km/h (2 Bft) 100,00 %
18.11.2021 11:38 8,8 C 8,9 C 7,8 C 90 % 1029,6 hPa 0,0 l/m 0 min 0 min 84 W/m 6,4 km/h (2 Bft) 98,31 %
18.11.2021 11:40 8,9 C 8,9 C 7,8 C 90 % 1029,6 hPa 0,0 l/m 0 min 0 min 81 W/m 22,5 km/h (4 Bft) 97,14 %
18.11.2021 11:42 8,8 C 8,9 C 7,8 C 90 % 1029,7 hPa 0,0 l/m 0 min 0 min 71 W/m 19,3 km/h (3 Bft) 97,87 %
18.11.2021 11:44 8,8 C 8,9 C 7,8 C 90 % 1029,6 hPa 0,0 l/m 0 min 0 min 63 W/m 22,5 km/h (4 Bft) 97,87 %
18.11.2021 11:46 8,9 C 8,9 C 7,8 C 90 % 1029,6 hPa 0,0 l/m 0 min 0 min 63 W/m 12,9 km/h (3 Bft) 95,65 %
18.11.2021 11:48 8,9 C 8,9 C 7,8 C 90 % 1029,6 hPa 0,0 l/m 0 min 0 min 65 W/m 19,3 km/h (3 Bft) 95,74 %
18.11.2021 11:50 8,9 C 8,9 C 7,8 C 90 % 1029,6 hPa 0,0 l/m 0 min 0 min 63 W/m 12,9 km/h (3 Bft) 93,62 %
18.11.2021 11:52 9,0 C 8,9 C 7,8 C 90 % 1029,6 hPa 0,0 l/m 0 min 0 min 65 W/m 12,9 km/h (3 Bft) 93,62 %
18.11.2021 11:54 9,0 C 8,9 C 7,8 C 90 % 1029,6 hPa 0,0 l/m 0 min 0 min 68 W/m 19,3 km/h (3 Bft) 95,74 %
18.11.2021 11:56 9,0 C 8,9 C 7,8 C 89 % 1029,6 hPa 0,0 l/m 0 min 0 min 69 W/m 22,5 km/h (4 Bft) 95,74 %
18.11.2021 11:58 9,1 C 8,9 C 7,8 C 89 % 1029,6 hPa 0,0 l/m 0 min 0 min 67 W/m 9,7 km/h (2 Bft) 95,65 %
18.11.2021 12:00 9,1 C 9,4 C 7,8 C 89 % 1029,6 hPa 0,0 l/m 0 min 0 min 68 W/m 12,9 km/h (3 Bft) 95,74 %
18.11.2021 12:02 9,1 C 9,4 C 7,8 C 89 % 1029,5 hPa 0,0 l/m 0 min 0 min 69 W/m 12,9 km/h (3 Bft) 95,74 %
18.11.2021 12:04 9,2 C 9,4 C 7,8 C 89 % 1029,5 hPa 0,0 l/m 0 min 0 min 76 W/m 12,9 km/h (3 Bft) 95,74 %
18.11.2021 12:07 9,3 C 9,4 C 7,8 C 89 % 1029,4 hPa 0,0 l/m 0 min 0 min 80 W/m 16,1 km/h (3 Bft) 95,12 %
18.11.2021 12:08 9,3 C 9,4 C 7,8 C 89 % 1029,4 hPa 0,0 l/m 0 min 0 min 81 W/m 16,1 km/h (3 Bft) 100,00 %
18.11.2021 12:10 9,4 C 9,4 C 7,8 C 89 % 1029,4 hPa 0,0 l/m 0 min 0 min 85 W/m 16,1 km/h (3 Bft) 93,62 %
18.11.2021 12:12 9,4 C 9,4 C 8,3 C 89 % 1029,4 hPa 0,0 l/m 0 min 0 min 87 W/m 16,1 km/h (3 Bft) 95,74 %
18.11.2021 12:14 9,5 C 9,4 C 8,3 C 89 % 1029,3 hPa 0,0 l/m 0 min 0 min 90 W/m 12,9 km/h (3 Bft) 93,62 %
18.11.2021 12:16 9,5 C 9,4 C 8,3 C 89 % 1029,3 hPa 0,0 l/m 0 min 0 min 90 W/m 25,7 km/h (4 Bft) 95,74 %
18.11.2021 12:18 9,5 C 9,4 C 8,3 C 88 % 1029,2 hPa 0,0 l/m 0 min 0 min 86 W/m 12,9 km/h (3 Bft) 95,74 %
18.11.2021 12:20 9,6 C 10,0 C 8,3 C 88 % 1029,3 hPa 0,0 l/m 0 min 0 min 86 W/m 16,1 km/h (3 Bft) 95,65 %
18.11.2021 12:22 9,6 C 10,0 C 8,3 C 88 % 1029,3 hPa 0,0 l/m 0 min 0 min 92 W/m 12,9 km/h (3 Bft) 95,74 %
18.11.2021 12:24 9,6 C 10,0 C 8,3 C 88 % 1029,2 hPa 0,0 l/m 0 min 0 min 89 W/m 16,1 km/h (3 Bft) 95,74 %
18.11.2021 12:26 9,6 C 10,0 C 8,3 C 88 % 1029,3 hPa 0,0 l/m 0 min 0 min 91 W/m 29,0 km/h (5 Bft) 93,62 %
18.11.2021 12:28 9,6 C 10,0 C 8,3 C 87 % 1029,3 hPa 0,0 l/m 0 min 0 min 84 W/m 16,1 km/h (3 Bft) 95,74 %
18.11.2021 12:30 9,7 C 10,0 C 8,3 C 87 % 1029,4 hPa 0,0 l/m 0 min 0 min 83 W/m 9,7 km/h (2 Bft) 97,87 %
18.11.2021 12:32 9,7 C 10,0 C 8,3 C 87 % 1029,4 hPa 0,0 l/m 0 min 0 min 89 W/m 16,1 km/h (3 Bft) 96,23 %
18.11.2021 12:34 9,8 C 10,0 C 8,3 C 87 % 1029,3 hPa 0,0 l/m 0 min 0 min 90 W/m 16,1 km/h (3 Bft) 95,74 %
18.11.2021 12:36 9,8 C 10,0 C 8,3 C 87 % 1029,3 hPa 0,0 l/m 0 min 0 min 82 W/m 22,5 km/h (4 Bft) 95,74 %
18.11.2021 12:38 9,8 C 10,0 C 8,3 C 87 % 1029,3 hPa 0,0 l/m 0 min 0 min 96 W/m 16,1 km/h (3 Bft) 97,96 %
18.11.2021 12:40 9,8 C 10,6 C 8,3 C 87 % 1029,4 hPa 0,0 l/m 0 min 0 min 111 W/m 19,3 km/h (3 Bft) 95,92 %
18.11.2021 12:42 9,9 C 10,6 C 8,3 C 87 % 1029,3 hPa 0,0 l/m 0 min 0 min 123 W/m 22,5 km/h (4 Bft) 97,87 %
18.11.2021 12:44 9,9 C 11,1 C 8,3 C 86 % 1029,3 hPa 0,0 l/m 0 min 0 min 111 W/m 19,3 km/h (3 Bft) 97,87 %
18.11.2021 12:46 9,9 C 11,1 C 8,3 C 86 % 1029,3 hPa 0,0 l/m 0 min 0 min 93 W/m 19,3 km/h (3 Bft) 97,62 %
18.11.2021 12:48 10,0 C 11,7 C 8,3 C 86 % 1029,4 hPa 0,0 l/m 0 min 0 min 98 W/m 19,3 km/h (3 Bft) 97,83 %
18.11.2021 12:50 10,0 C 11,1 C 8,3 C 86 % 1029,3 hPa 0,0 l/m 0 min 0 min 110 W/m 19,3 km/h (3 Bft) 97,87 %
18.11.2021 12:52 10,0 C 12,2 C 8,3 C 86 % 1029,3 hPa 0,0 l/m 0 min 0 min 162 W/m 16,1 km/h (3 Bft) 97,87 %
18.11.2021 12:54 10,0 C 12,8 C 8,3 C 86 % 1029,3 hPa 0,0 l/m 0 min 0 min 153 W/m 12,9 km/h (3 Bft) 100,00 %
18.11.2021 12:56 10,0 C 12,8 C 8,3 C 86 % 1029,3 hPa 0,0 l/m 0 min 0 min 150 W/m 12,9 km/h (3 Bft) 100,00 %
18.11.2021 12:58 10,1 C 12,8 C 8,3 C 86 % 1029,2 hPa 0,0 l/m 2 min 0 min 210 W/m 16,1 km/h (3 Bft) 97,87 %
18.11.2021 13:00 10,1 C 12,8 C 8,3 C 85 % 1029,2 hPa 0,0 l/m 2 min 0 min 241 W/m 12,9 km/h (3 Bft) 97,87 %
18.11.2021 13:02 10,1 C 13,3 C 8,3 C 85 % 1029,3 hPa 0,0 l/m 2 min 0 min 257 W/m 19,3 km/h (3 Bft) 100,00 %
18.11.2021 13:04 10,1 C 13,9 C 8,3 C 85 % 1029,2 hPa 0,0 l/m 2 min 0 min 268 W/m 16,1 km/h (3 Bft) 100,00 %
18.11.2021 13:06 10,2 C 14,4 C 8,3 C 85 % 1029,1 hPa 0,0 l/m 2 min 0 min 281 W/m 12,9 km/h (3 Bft) 100,00 %
18.11.2021 13:08 10,2 C 14,4 C 8,3 C 85 % 1029,1 hPa 0,0 l/m 2 min 0 min 291 W/m 9,7 km/h (2 Bft) 98,00 %
18.11.2021 13:10 10,3 C 14,4 C 8,3 C 85 % 1029,1 hPa 0,0 l/m 2 min 0 min 285 W/m 25,7 km/h (4 Bft) 100,00 %
18.11.2021 13:12 10,4 C 15,0 C 8,3 C 85 % 1029,2 hPa 0,0 l/m 2 min 0 min 288 W/m 12,9 km/h (3 Bft) 97,96 %
18.11.2021 13:14 10,4 C 14,4 C 8,3 C 85 % 1029,1 hPa 0,0 l/m 2 min 0 min 280 W/m 16,1 km/h (3 Bft) 100,00 %
18.11.2021 13:16 10,5 C 14,4 C 8,3 C 85 % 1029,1 hPa 0,0 l/m 2 min 0 min 270 W/m 19,3 km/h (3 Bft) 100,00 %
18.11.2021 13:18 10,5 C 13,9 C 8,3 C 84 % 1029,1 hPa 0,0 l/m 2 min 0 min 263 W/m 19,3 km/h (3 Bft) 100,00 %
18.11.2021 13:20 10,6 C 14,4 C 8,3 C 85 % 1029,1 hPa 0,0 l/m 2 min 0 min 256 W/m 6,4 km/h (2 Bft) 100,00 %
18.11.2021 13:22 10,6 C 13,9 C 8,3 C 84 % 1029,1 hPa 0,0 l/m 2 min 0 min 256 W/m 19,3 km/h (3 Bft) 100,00 %
18.11.2021 13:24 10,6 C 13,9 C 8,3 C 84 % 1029,0 hPa 0,0 l/m 2 min 0 min 253 W/m 16,1 km/h (3 Bft) 100,00 %
18.11.2021 13:26 10,6 C 13,9 C 8,3 C 84 % 1029,0 hPa 0,0 l/m 2 min 0 min 251 W/m 12,9 km/h (3 Bft) 98,15 %
18.11.2021 13:28 10,6 C 13,9 C 8,3 C 84 % 1029,0 hPa 0,0 l/m 2 min 0 min 256 W/m 19,3 km/h (3 Bft) 100,00 %
18.11.2021 13:30 10,6 C 13,9 C 8,3 C 84 % 1029,0 hPa 0,0 l/m 2 min 0 min 244 W/m 19,3 km/h (3 Bft) 100,00 %
18.11.2021 13:32 10,6 C 13,3 C 8,3 C 84 % 1028,9 hPa 0,0 l/m 2 min 0 min 242 W/m 16,1 km/h (3 Bft) 100,00 %
18.11.2021 13:34 10,6 C 13,9 C 8,3 C 84 % 1028,9 hPa 0,0 l/m 2 min 0 min 249 W/m 12,9 km/h (3 Bft) 100,00 %
18.11.2021 13:36 10,6 C 13,9 C 8,3 C 84 % 1028,9 hPa 0,0 l/m 2 min 0 min 241 W/m 19,3 km/h (3 Bft) 97,87 %
18.11.2021 13:38 10,7 C 14,4 C 8,3 C 84 % 1028,9 hPa 0,0 l/m 2 min 0 min 242 W/m 12,9 km/h (3 Bft) 100,00 %
18.11.2021 13:40 10,7 C 13,9 C 8,3 C 84 % 1028,9 hPa 0,0 l/m 2 min 0 min 243 W/m 9,7 km/h (2 Bft) 100,00 %
18.11.2021 13:42 10,8 C 13,9 C 8,3 C 84 % 1028,8 hPa 0,0 l/m 2 min 0 min 216 W/m 12,9 km/h (3 Bft) 100,00 %
18.11.2021 13:44 10,8 C 13,3 C 8,3 C 84 % 1028,7 hPa 0,0 l/m 2 min 0 min 222 W/m 12,9 km/h (3 Bft) 100,00 %
18.11.2021 13:46 10,8 C 13,3 C 8,3 C 84 % 1028,6 hPa 0,0 l/m 2 min 0 min 218 W/m 16,1 km/h (3 Bft) 97,87 %
18.11.2021 13:48 10,7 C 12,2 C 8,3 C 83 % 1028,6 hPa 0,0 l/m 2 min 0 min 218 W/m 19,3 km/h (3 Bft) 100,00 %
18.11.2021 13:50 10,7 C 12,2 C 8,3 C 83 % 1028,4 hPa 0,0 l/m 2 min 0 min 223 W/m 19,3 km/h (3 Bft) 100,00 %
18.11.2021 13:52 10,7 C 12,8 C 8,3 C 84 % 1028,4 hPa 0,0 l/m 2 min 0 min 226 W/m 12,9 km/h (3 Bft) 100,00 %
18.11.2021 13:54 10,8 C 12,8 C 8,3 C 84 % 1028,4 hPa 0,0 l/m 2 min 0 min 219 W/m 12,9 km/h (3 Bft) 100,00 %
18.11.2021 13:56 10,8 C 12,8 C 8,3 C 83 % 1028,4 hPa 0,0 l/m 2 min 0 min 198 W/m 16,1 km/h (3 Bft) 100,00 %
18.11.2021 13:58 10,8 C 12,8 C 8,3 C 83 % 1028,3 hPa 0,0 l/m 2 min 0 min 194 W/m 12,9 km/h (3 Bft) 100,00 %
18.11.2021 14:00 10,8 C 12,8 C 8,3 C 83 % 1028,4 hPa 0,0 l/m 2 min 0 min 233 W/m 16,1 km/h (3 Bft) 97,87 %
18.11.2021 14:02 10,8 C 12,8 C 8,3 C 83 % 1028,3 hPa 0,0 l/m 2 min 0 min 216 W/m 22,5 km/h (4 Bft) 100,00 %
18.11.2021 14:04 10,8 C 12,8 C 8,3 C 83 % 1028,3 hPa 0,0 l/m 2 min 0 min 228 W/m 16,1 km/h (3 Bft) 100,00 %
18.11.2021 14:06 10,8 C 12,8 C 8,3 C 82 % 1028,4 hPa 0,0 l/m 2 min 0 min 232 W/m 16,1 km/h (3 Bft) 100,00 %
18.11.2021 14:08 10,8 C 12,8 C 8,3 C 82 % 1028,4 hPa 0,0 l/m 2 min 0 min 228 W/m 19,3 km/h (3 Bft) 97,83 %
18.11.2021 14:10 10,8 C 12,2 C 8,3 C 81 % 1028,4 hPa 0,0 l/m 2 min 0 min 231 W/m 19,3 km/h (3 Bft) 100,00 %
18.11.2021 14:12 10,9 C 12,2 C 8,3 C 81 % 1028,4 hPa 0,0 l/m 2 min 0 min 225 W/m 25,7 km/h (4 Bft) 100,00 %
18.11.2021 14:14 10,9 C 12,8 C 8,3 C 81 % 1028,4 hPa 0,0 l/m 2 min 0 min 203 W/m 19,3 km/h (3 Bft) 100,00 %
18.11.2021 14:16 10,9 C 13,3 C 8,3 C 81 % 1028,4 hPa 0,0 l/m 2 min 0 min 198 W/m 19,3 km/h (3 Bft) 97,87 %
18.11.2021 14:18 11,0 C 13,3 C 8,3 C 81 % 1028,4 hPa 0,0 l/m 2 min 0 min 213 W/m 19,3 km/h (3 Bft) 97,87 %
18.11.2021 14:20 11,0 C 12,8 C 8,3 C 81 % 1028,4 hPa 0,0 l/m 2 min 0 min 215 W/m 25,7 km/h (4 Bft) 97,83 %
18.11.2021 14:22 11,0 C 13,3 C 8,3 C 81 % 1028,4 hPa 0,0 l/m 2 min 0 min 216 W/m 19,3 km/h (3 Bft) 95,74 %
18.11.2021 14:24 11,0 C 13,3 C 8,3 C 81 % 1028,5 hPa 0,0 l/m 2 min 0 min 215 W/m 12,9 km/h (3 Bft) 97,87 %
18.11.2021 14:26 11,0 C 13,3 C 8,3 C 81 % 1028,5 hPa 0,0 l/m 2 min 0 min 212 W/m 12,9 km/h (3 Bft) 95,74 %
18.11.2021 14:28 11,0 C 13,9 C 8,3 C 81 % 1028,5 hPa 0,0 l/m 2 min 0 min 204 W/m 16,1 km/h (3 Bft) 95,74 %
18.11.2021 14:30 11,0 C 13,9 C 8,3 C 81 % 1028,4 hPa 0,0 l/m 2 min 0 min 193 W/m 6,4 km/h (2 Bft) 91,49 %
18.11.2021 14:32 11,1 C 13,9 C 8,3 C 81 % 1028,4 hPa 0,0 l/m 2 min 0 min 194 W/m 6,4 km/h (2 Bft) 95,65 %
18.11.2021 14:34 11,1 C 13,3 C 8,3 C 81 % 1028,3 hPa 0,0 l/m 2 min 0 min 165 W/m 12,9 km/h (3 Bft) 95,74 %
18.11.2021 14:36 11,1 C 13,3 C 8,3 C 81 % 1028,4 hPa 0,0 l/m 2 min 0 min 209 W/m 25,7 km/h (4 Bft) 93,62 %
18.11.2021 14:38 11,1 C 12,8 C 8,3 C 81 % 1028,4 hPa 0,0 l/m 2 min 0 min 204 W/m 25,7 km/h (4 Bft) 93,62 %
18.11.2021 14:40 11,1 C 12,8 C 8,3 C 81 % 1028,4 hPa 0,0 l/m 2 min 0 min 201 W/m 19,3 km/h (3 Bft) 95,74 %
18.11.2021 14:42 11,1 C 12,8 C 8,3 C 81 % 1028,4 hPa 0,0 l/m 2 min 0 min 192 W/m 6,4 km/h (2 Bft) 95,74 %
18.11.2021 14:44 11,1 C 12,8 C 8,3 C 81 % 1028,4 hPa 0,0 l/m 2 min 0 min 174 W/m 16,1 km/h (3 Bft) 93,48 %
18.11.2021 14:46 11,1 C 12,2 C 8,3 C 81 % 1028,3 hPa 0,0 l/m 2 min 0 min 150 W/m 16,1 km/h (3 Bft) 95,74 %
18.11.2021 14:48 11,1 C 12,2 C 8,3 C 81 % 1028,3 hPa 0,0 l/m 2 min 0 min 149 W/m 12,9 km/h (3 Bft) 95,74 %
18.11.2021 14:50 11,1 C 11,7 C 8,3 C 81 % 1028,3 hPa 0,0 l/m 2 min 0 min 165 W/m 22,5 km/h (4 Bft) 93,62 %
18.11.2021 14:52 11,0 C 11,7 C 8,3 C 81 % 1028,3 hPa 0,0 l/m 2 min 0 min 162 W/m 16,1 km/h (3 Bft) 95,74 %
18.11.2021 14:54 11,0 C 11,7 C 8,3 C 81 % 1028,4 hPa 0,0 l/m 2 min 0 min 140 W/m 12,9 km/h (3 Bft) 95,74 %
18.11.2021 14:56 11,0 C 11,7 C 8,3 C 81 % 1028,4 hPa 0,0 l/m 2 min 0 min 132 W/m 6,4 km/h (2 Bft) 93,48 %
18.11.2021 14:58 11,0 C 11,1 C 8,3 C 81 % 1028,4 hPa 0,0 l/m 2 min 0 min 146 W/m 6,4 km/h (2 Bft) 97,87 %
18.11.2021 15:00 11,0 C 11,1 C 8,3 C 81 % 1028,3 hPa 0,0 l/m 2 min 0 min 123 W/m 19,3 km/h (3 Bft) 97,87 %
18.11.2021 15:02 11,0 C 10,6 C 7,8 C 81 % 1028,3 hPa 0,0 l/m 2 min 0 min 131 W/m 19,3 km/h (3 Bft) 97,87 %
18.11.2021 15:04 10,9 C 10,6 C 7,8 C 81 % 1028,2 hPa 0,0 l/m 2 min 0 min 132 W/m 16,1 km/h (3 Bft) 93,62 %
18.11.2021 15:06 10,9 C 10,6 C 7,8 C 81 % 1028,2 hPa 0,0 l/m 2 min 0 min 124 W/m 38,6 km/h (5 Bft) 97,87 %
18.11.2021 15:08 10,8 C 10,6 C 7,8 C 82 % 1028,1 hPa 0,0 l/m 2 min 0 min 127 W/m 12,9 km/h (3 Bft) 97,83 %
18.11.2021 15:10 10,8 C 10,6 C 7,8 C 82 % 1028,1 hPa 0,0 l/m 2 min 0 min 123 W/m 16,1 km/h (3 Bft) 97,87 %
18.11.2021 15:12 10,8 C 10,6 C 7,8 C 82 % 1028,1 hPa 0,0 l/m 2 min 0 min 94 W/m 12,9 km/h (3 Bft) 97,87 %
18.11.2021 15:14 10,8 C 10,6 C 7,8 C 82 % 1028,2 hPa 0,0 l/m 0 min 0 min 73 W/m 16,1 km/h (3 Bft) 93,62 %
18.11.2021 15:16 10,8 C 10,6 C 7,8 C 82 % 1028,1 hPa 0,0 l/m 0 min 0 min 68 W/m 16,1 km/h (3 Bft) 95,74 %
18.11.2021 15:18 10,8 C 10,6 C 7,8 C 82 % 1028,2 hPa 0,0 l/m 0 min 0 min 65 W/m 12,9 km/h (3 Bft) 95,74 %
18.11.2021 15:20 10,7 C 10,6 C 7,8 C 83 % 1028,2 hPa 0,0 l/m 0 min 0 min 62 W/m 16,1 km/h (3 Bft) 95,65 %
18.11.2021 15:22 10,7 C 10,6 C 7,8 C 83 % 1028,3 hPa 0,0 l/m 0 min 0 min 60 W/m 16,1 km/h (3 Bft) 97,87 %
18.11.2021 15:24 10,6 C 10,6 C 7,8 C 83 % 1028,2 hPa 0,0 l/m 0 min 0 min 58 W/m 12,9 km/h (3 Bft) 97,87 %
18.11.2021 15:26 10,6 C 10,6 C 7,8 C 83 % 1028,2 hPa 0,0 l/m 0 min 0 min 55 W/m 12,9 km/h (3 Bft) 97,87 %
18.11.2021 15:28 10,6 C 10,0 C 7,8 C 83 % 1028,1 hPa 0,0 l/m 0 min 0 min 54 W/m 6,4 km/h (2 Bft) 97,87 %
18.11.2021 15:30 10,6 C 10,0 C 7,8 C 83 % 1028,1 hPa 0,0 l/m 0 min 0 min 53 W/m 9,7 km/h (2 Bft) 97,87 %
18.11.2021 15:32 10,6 C 10,0 C 7,8 C 83 % 1028,0 hPa 0,0 l/m 0 min 0 min 50 W/m 9,7 km/h (2 Bft) 97,83 %
18.11.2021 15:34 10,5 C 10,0 C 7,8 C 83 % 1028,0 hPa 0,0 l/m 0 min 0 min 49 W/m 12,9 km/h (3 Bft) 97,87 %
18.11.2021 15:36 10,5 C 10,0 C 7,8 C 83 % 1028,0 hPa 0,0 l/m 0 min 0 min 47 W/m 9,7 km/h (2 Bft) 97,87 %
18.11.2021 15:38 10,5 C 10,0 C 7,8 C 83 % 1028,0 hPa 0,0 l/m 0 min 0 min 46 W/m 9,7 km/h (2 Bft) 97,87 %
18.11.2021 15:40 10,5 C 10,0 C 7,8 C 83 % 1028,1 hPa 0,0 l/m 0 min 0 min 45 W/m 12,9 km/h (3 Bft) 97,87 %
18.11.2021 15:42 10,5 C 10,0 C 7,8 C 83 % 1028,1 hPa 0,0 l/m 0 min 0 min 44 W/m 16,1 km/h (3 Bft) 97,87 %
18.11.2021 15:44 10,5 C 10,0 C 7,8 C 83 % 1028,1 hPa 0,0 l/m 0 min 0 min 46 W/m 12,9 km/h (3 Bft) 95,65 %
18.11.2021 15:46 10,5 C 10,0 C 7,8 C 83 % 1028,2 hPa 0,0 l/m 0 min 0 min 46 W/m 19,3 km/h (3 Bft) 93,62 %
18.11.2021 15:48 10,5 C 10,0 C 7,8 C 83 % 1028,1 hPa 0,0 l/m 0 min 0 min 46 W/m 12,9 km/h (3 Bft) 97,87 %
18.11.2021 15:50 10,4 C 10,0 C 7,8 C 83 % 1028,2 hPa 0,0 l/m 0 min 0 min 44 W/m 12,9 km/h (3 Bft) 95,74 %
18.11.2021 15:52 10,4 C 10,0 C 7,8 C 84 % 1028,2 hPa 0,0 l/m 0 min 0 min 42 W/m 12,9 km/h (3 Bft) 97,87 %
18.11.2021 15:54 10,4 C 10,0 C 7,8 C 84 % 1028,2 hPa 0,0 l/m 0 min 0 min 40 W/m 3,2 km/h (1 Bft) 97,83 %
18.11.2021 15:56 10,4 C 10,0 C 7,2 C 84 % 1028,2 hPa 0,0 l/m 0 min 0 min 37 W/m 3,2 km/h (1 Bft) 97,87 %
18.11.2021 15:58 10,4 C 10,0 C 7,2 C 84 % 1028,2 hPa 0,0 l/m 0 min 0 min 33 W/m 6,4 km/h (2 Bft) 100,00 %
18.11.2021 16:00 10,4 C 10,0 C 7,2 C 84 % 1028,2 hPa 0,0 l/m 0 min 0 min 32 W/m 6,4 km/h (2 Bft) 100,00 %
18.11.2021 16:02 10,4 C 9,4 C 7,2 C 84 % 1028,2 hPa 0,0 l/m 0 min 0 min 30 W/m 6,4 km/h (2 Bft) 100,00 %
18.11.2021 16:04 10,3 C 9,4 C 7,2 C 84 % 1028,2 hPa 0,0 l/m 0 min 0 min 28 W/m 12,9 km/h (3 Bft) 100,00 %
18.11.2021 16:06 10,3 C 9,4 C 7,2 C 84 % 1028,3 hPa 0,0 l/m 0 min 0 min 26 W/m 12,9 km/h (3 Bft) 100,00 %
18.11.2021 16:08 10,3 C 9,4 C 7,2 C 84 % 1028,3 hPa 0,0 l/m 0 min 0 min 24 W/m 6,4 km/h (2 Bft) 97,87 %
18.11.2021 16:10 10,2 C 9,4 C 7,2 C 84 % 1028,4 hPa 0,0 l/m 0 min 0 min 23 W/m 9,7 km/h (2 Bft) 100,00 %
18.11.2021 16:12 10,1 C 9,4 C 7,2 C 84 % 1028,5 hPa 0,0 l/m 0 min 0 min 21 W/m 6,4 km/h (2 Bft) 100,00 %
18.11.2021 16:14 10,1 C 9,4 C 7,2 C 84 % 1028,5 hPa 0,0 l/m 0 min 0 min 19 W/m 3,2 km/h (1 Bft) 100,00 %
18.11.2021 16:16 10,1 C 9,4 C 7,2 C 84 % 1028,5 hPa 0,0 l/m 0 min 0 min 18 W/m 6,4 km/h (2 Bft) 100,00 %
18.11.2021 16:18 10,0 C 8,9 C 6,7 C 84 % 1028,4 hPa 0,0 l/m 0 min 0 min 18 W/m 6,4 km/h (2 Bft) 100,00 %
18.11.2021 16:20 10,0 C 8,9 C 6,7 C 84 % 1028,4 hPa 0,0 l/m 0 min 0 min 16 W/m 3,2 km/h (1 Bft) 100,00 %
18.11.2021 16:22 10,0 C 8,9 C 6,7 C 85 % 1028,4 hPa 0,0 l/m 0 min 0 min 15 W/m 6,4 km/h (2 Bft) 100,00 %
18.11.2021 16:24 9,9 C 8,9 C 6,7 C 85 % 1028,4 hPa 0,0 l/m 0 min 0 min 13 W/m 6,4 km/h (2 Bft) 100,00 %
18.11.2021 16:26 9,9 C 8,9 C 6,7 C 85 % 1028,4 hPa 0,0 l/m 0 min 0 min 12 W/m 6,4 km/h (2 Bft) 100,00 %
18.11.2021 16:28 9,9 C 8,9 C 6,7 C 85 % 1028,4 hPa 0,0 l/m 0 min 0 min 11 W/m 6,4 km/h (2 Bft) 100,00 %
18.11.2021 16:30 9,8 C 8,9 C 6,7 C 85 % 1028,4 hPa 0,0 l/m 0 min 0 min 10 W/m 6,4 km/h (2 Bft) 100,00 %
18.11.2021 16:32 9,8 C 8,9 C 6,7 C 85 % 1028,4 hPa 0,0 l/m 0 min 0 min 8 W/m 3,2 km/h (1 Bft) 100,00 %
18.11.2021 16:34 9,7 C 8,9 C 6,7 C 85 % 1028,5 hPa 0,0 l/m 0 min 0 min 7 W/m 6,4 km/h (2 Bft) 97,87 %
18.11.2021 16:36 9,7 C 8,3 C 6,7 C 85 % 1028,5 hPa 0,0 l/m 0 min 0 min 5 W/m 6,4 km/h (2 Bft) 100,00 %
18.11.2021 16:38 9,6 C 8,3 C 6,7 C 85 % 1028,6 hPa 0,0 l/m 0 min 0 min 3 W/m 6,4 km/h (2 Bft) 100,00 %
18.11.2021 16:40 9,6 C 8,3 C 6,7 C 85 % 1028,6 hPa 0,0 l/m 0 min 0 min 0 W/m 3,2 km/h (1 Bft) 100,00 %
18.11.2021 16:42 9,6 C 8,3 C 6,7 C 85 % 1028,7 hPa 0,0 l/m 0 min 0 min 0 W/m 6,4 km/h (2 Bft) 100,00 %
18.11.2021 16:44 9,5 C 8,3 C 6,7 C 86 % 1028,6 hPa 0,0 l/m 0 min 0 min 0 W/m 9,7 km/h (2 Bft) 95,74 %
18.11.2021 16:46 9,5 C 8,3 C 6,7 C 86 % 1028,6 hPa 0,0 l/m 0 min 0 min 0 W/m 3,2 km/h (1 Bft) 100,00 %
18.11.2021 16:48 9,5 C 8,3 C 6,1 C 86 % 1028,6 hPa 0,0 l/m 0 min 0 min 0 W/m 3,2 km/h (1 Bft) 97,87 %
18.11.2021 16:50 9,5 C 8,3 C 6,1 C 86 % 1028,6 hPa 0,0 l/m 0 min 0 min 0 W/m 6,4 km/h (2 Bft) 97,87 %
18.11.2021 16:52 9,4 C 8,3 C 6,1 C 86 % 1028,5 hPa 0,0 l/m 0 min 0 min 0 W/m 3,2 km/h (1 Bft) 97,83 %
18.11.2021 16:54 9,4 C 8,3 C 6,1 C 86 % 1028,5 hPa 0,0 l/m 0 min 0 min 0 W/m 6,4 km/h (2 Bft) 95,74 %
18.11.2021 16:56 9,4 C 8,3 C 6,1 C 86 % 1028,6 hPa 0,0 l/m 0 min 0 min 0 W/m 6,4 km/h (2 Bft) 95,74 %
18.11.2021 16:58 9,3 C 8,3 C 6,1 C 86 % 1028,6 hPa 0,0 l/m 0 min 0 min 0 W/m 3,2 km/h (1 Bft) 93,62 %
18.11.2021 17:00 9,3 C 8,3 C 6,1 C 87 % 1028,6 hPa 0,0 l/m 0 min 0 min 0 W/m 6,4 km/h (2 Bft) 93,62 %
18.11.2021 17:02 9,3 C 8,3 C 6,1 C 86 % 1028,6 hPa 0,0 l/m 0 min 0 min 0 W/m 6,4 km/h (2 Bft) 95,74 %
18.11.2021 17:04 9,3 C 8,3 C 6,1 C 87 % 1028,6 hPa 0,0 l/m 0 min 0 min 0 W/m 6,4 km/h (2 Bft) 95,65 %
18.11.2021 17:06 9,2 C 8,3 C 6,1 C 87 % 1028,6 hPa 0,0 l/m 0 min 0 min 0 W/m 9,7 km/h (2 Bft) 93,62 %
18.11.2021 17:08 9,2 C 8,3 C 6,1 C 87 % 1028,7 hPa 0,0 l/m 0 min 0 min 0 W/m 6,4 km/h (2 Bft) 95,74 %
18.11.2021 17:10 9,1 C 8,3 C 6,1 C 87 % 1028,7 hPa 0,0 l/m 0 min 0 min 0 W/m 3,2 km/h (1 Bft) 93,62 %
18.11.2021 17:12 9,1 C 8,3 C 6,1 C 87 % 1028,7 hPa 0,0 l/m 0 min 0 min 0 W/m 6,4 km/h (2 Bft) 95,74 %
18.11.2021 17:14 9,1 C 8,3 C 6,1 C 87 % 1028,8 hPa 0,0 l/m 0 min 0 min 0 W/m 9,7 km/h (2 Bft) 93,62 %
18.11.2021 17:16 9,1 C 8,3 C 6,1 C 87 % 1028,8 hPa 0,0 l/m 0 min 0 min 0 W/m 6,4 km/h (2 Bft) 89,13 %
18.11.2021 17:18 9,1 C 8,3 C 6,1 C 87 % 1028,8 hPa 0,0 l/m 0 min 0 min 0 W/m 19,3 km/h (3 Bft) 95,74 %
18.11.2021 17:20 9,1 C 8,3 C 6,1 C 87 % 1028,7 hPa 0,0 l/m 0 min 0 min 0 W/m 12,9 km/h (3 Bft) 95,74 %
18.11.2021 17:22 9,1 C 8,3 C 6,1 C 88 % 1028,6 hPa 0,0 l/m 0 min 0 min 0 W/m 12,9 km/h (3 Bft) 95,74 %
18.11.2021 17:24 9,1 C 8,3 C 6,1 C 88 % 1028,6 hPa 0,0 l/m 0 min 0 min 0 W/m 9,7 km/h (2 Bft) 93,62 %
18.11.2021 17:26 9,1 C 8,3 C 6,1 C 88 % 1028,6 hPa 0,0 l/m 0 min 0 min 0 W/m 9,7 km/h (2 Bft) 93,62 %
18.11.2021 17:28 9,1 C 8,3 C 6,1 C 88 % 1028,6 hPa 0,0 l/m 0 min 0 min 0 W/m 9,7 km/h (2 Bft) 93,48 %
18.11.2021 17:30 9,1 C 8,3 C 6,1 C 88 % 1028,5 hPa 0,0 l/m 0 min 0 min 0 W/m 6,4 km/h (2 Bft) 91,49 %
18.11.2021 17:32 9,1 C 8,3 C 6,7 C 88 % 1028,6 hPa 0,0 l/m 0 min 0 min 0 W/m 6,4 km/h (2 Bft) 89,36 %
18.11.2021 17:34 9,1 C 8,3 C 6,7 C 88 % 1028,5 hPa 0,0 l/m 0 min 0 min 0 W/m 9,7 km/h (2 Bft) 97,87 %
18.11.2021 17:36 9,1 C 8,3 C 6,7 C 88 % 1028,5 hPa 0,0 l/m 0 min 0 min 0 W/m 6,4 km/h (2 Bft) 93,62 %
18.11.2021 17:38 9,2 C 8,9 C 6,7 C 88 % 1028,5 hPa 0,0 l/m 0 min 0 min 0 W/m 6,4 km/h (2 Bft) 97,87 %
18.11.2021 17:40 9,2 C 8,9 C 6,7 C 88 % 1028,5 hPa 0,0 l/m 0 min 0 min 0 W/m 6,4 km/h (2 Bft) 97,83 %
18.11.2021 17:42 9,2 C 8,9 C 6,7 C 88 % 1028,6 hPa 0,0 l/m 0 min 0 min 0 W/m 6,4 km/h (2 Bft) 52,27 %
18.11.2021 17:44 9,3 C 8,9 C 6,7 C 88 % 1028,6 hPa 0,0 l/m 0 min 0 min 0 W/m 16,1 km/h (3 Bft) 97,87 %
18.11.2021 17:46 9,3 C 8,9 C 6,7 C 88 % 1028,6 hPa 0,0 l/m 0 min 0 min 0 W/m 16,1 km/h (3 Bft) 95,74 %
18.11.2021 17:48 9,3 C 8,9 C 6,7 C 88 % 1028,6 hPa 0,0 l/m 0 min 0 min 0 W/m 6,4 km/h (2 Bft) 97,87 %
18.11.2021 17:50 9,3 C 8,9 C 6,7 C 88 % 1028,7 hPa 0,0 l/m 0 min 0 min 0 W/m 16,1 km/h (3 Bft) 97,87 %
18.11.2021 17:52 9,4 C 8,9 C 6,7 C 88 % 1028,7 hPa 0,0 l/m 0 min 0 min 0 W/m 12,9 km/h (3 Bft) 97,83 %
18.11.2021 17:54 9,4 C 8,9 C 6,7 C 88 % 1028,6 hPa 0,0 l/m 0 min 0 min 0 W/m 12,9 km/h (3 Bft) 97,87 %
18.11.2021 17:56 9,4 C 8,9 C 6,7 C 88 % 1028,6 hPa 0,0 l/m 0 min 0 min 0 W/m 16,1 km/h (3 Bft) 100,00 %
18.11.2021 17:58 9,4 C 8,9 C 6,7 C 88 % 1028,6 hPa 0,0 l/m 0 min 0 min 0 W/m 9,7 km/h (2 Bft) 100,00 %
18.11.2021 18:00 9,4 C 8,9 C 6,7 C 88 % 1028,6 hPa 0,0 l/m 0 min 0 min 0 W/m 19,3 km/h (3 Bft) 100,00 %
18.11.2021 18:02 9,5 C 8,9 C 6,7 C 88 % 1028,7 hPa 0,0 l/m 0 min 0 min 0 W/m 12,9 km/h (3 Bft) 100,00 %
18.11.2021 18:04 9,5 C 8,9 C 6,7 C 88 % 1028,8 hPa 0,0 l/m 0 min 0 min 0 W/m 6,4 km/h (2 Bft) 100,00 %
18.11.2021 18:06 9,5 C 8,9 C 6,7 C 88 % 1028,7 hPa 0,0 l/m 0 min 0 min 0 W/m 12,9 km/h (3 Bft) 97,87 %
18.11.2021 18:08 9,5 C 8,9 C 6,7 C 88 % 1028,7 hPa 0,0 l/m 0 min 0 min 0 W/m 9,7 km/h (2 Bft) 97,87 %
18.11.2021 18:10 9,5 C 8,9 C 6,7 C 88 % 1028,7 hPa 0,0 l/m 0 min 0 min 0 W/m 22,5 km/h (4 Bft) 100,00 %
18.11.2021 18:12 9,5 C 8,9 C 6,7 C 88 % 1028,7 hPa 0,0 l/m 0 min 0 min 0 W/m 22,5 km/h (4 Bft) 100,00 %
18.11.2021 18:14 9,5 C 8,9 C 6,7 C 88 % 1028,8 hPa 0,0 l/m 0 min 0 min 0 W/m 12,9 km/h (3 Bft) 100,00 %
18.11.2021 18:16 9,5 C 8,9 C 6,7 C 88 % 1028,8 hPa 0,0 l/m 0 min 0 min 0 W/m 12,9 km/h (3 Bft) 100,00 %
18.11.2021 18:18 9,5 C 8,9 C 6,7 C 88 % 1028,7 hPa 0,0 l/m 0 min 0 min 0 W/m 12,9 km/h (3 Bft) 100,00 %
18.11.2021 18:20 9,5 C 8,9 C 6,7 C 88 % 1028,8 hPa 0,0 l/m 0 min 0 min 0 W/m 19,3 km/h (3 Bft) 100,00 %
18.11.2021 18:22 9,5 C 8,9 C 6,7 C 88 % 1028,7 hPa 0,0 l/m 0 min 0 min 0 W/m 22,5 km/h (4 Bft) 100,00 %
18.11.2021 18:24 9,5 C 8,9 C 6,7 C 88 % 1028,7 hPa 0,0 l/m 0 min 0 min 0 W/m 12,9 km/h (3 Bft) 100,00 %
18.11.2021 18:26 9,5 C 8,9 C 6,7 C 88 % 1028,8 hPa 0,0 l/m 0 min 0 min 0 W/m 16,1 km/h (3 Bft) 100,00 %
18.11.2021 18:28 9,5 C 8,9 C 6,7 C 88 % 1028,7 hPa 0,0 l/m 0 min 0 min 0 W/m 25,7 km/h (4 Bft) 100,00 %
18.11.2021 18:30 9,5 C 8,9 C 6,7 C 88 % 1028,8 hPa 0,0 l/m 0 min 0 min 0 W/m 19,3 km/h (3 Bft) 100,00 %
18.11.2021 18:32 9,5 C 8,9 C 6,7 C 88 % 1028,8 hPa 0,0 l/m 0 min 0 min 0 W/m 19,3 km/h (3 Bft) 100,00 %
18.11.2021 18:34 9,5 C 8,9 C 6,7 C 88 % 1028,7 hPa 0,0 l/m 0 min 0 min 0 W/m 9,7 km/h (2 Bft) 100,00 %
18.11.2021 18:36 9,5 C 8,9 C 6,7 C 88 % 1028,6 hPa 0,0 l/m 0 min 0 min 0 W/m 16,1 km/h (3 Bft) 100,00 %
18.11.2021 18:38 9,5 C 8,9 C 6,7 C 88 % 1028,6 hPa 0,0 l/m 0 min 0 min 0 W/m 12,9 km/h (3 Bft) 97,83 %
18.11.2021 18:40 9,5 C 8,9 C 6,7 C 88 % 1028,6 hPa 0,0 l/m 0 min 0 min 0 W/m 29,0 km/h (5 Bft) 100,00 %
18.11.2021 18:42 9,5 C 8,9 C 6,7 C 88 % 1028,7 hPa 0,0 l/m 0 min 0 min 0 W/m 12,9 km/h (3 Bft) 100,00 %
18.11.2021 18:44 9,5 C 8,9 C 6,7 C 88 % 1028,8 hPa 0,0 l/m 0 min 0 min 0 W/m 9,7 km/h (2 Bft) 100,00 %
18.11.2021 18:46 9,5 C 8,9 C 6,7 C 88 % 1028,9 hPa 0,0 l/m 0 min 0 min 0 W/m 12,9 km/h (3 Bft) 100,00 %
18.11.2021 18:48 9,5 C 8,9 C 6,7 C 88 % 1028,9 hPa 0,0 l/m 0 min 0 min 0 W/m 12,9 km/h (3 Bft) 100,00 %
18.11.2021 18:50 9,5 C 8,9 C 6,7 C 88 % 1028,9 hPa 0,0 l/m 0 min 0 min 0 W/m 12,9 km/h (3 Bft) 100,00 %
18.11.2021 18:52 9,5 C 8,9 C 6,7 C 88 % 1029,0 hPa 0,0 l/m 0 min 0 min 0 W/m 9,7 km/h (2 Bft) 100,00 %
18.11.2021 18:54 9,5 C 8,9 C 6,7 C 88 % 1029,0 hPa 0,0 l/m 0 min 0 min 0 W/m 12,9 km/h (3 Bft) 100,00 %
18.11.2021 18:56 9,5 C 8,9 C 6,7 C 88 % 1029,1 hPa 0,0 l/m 0 min 0 min 0 W/m 16,1 km/h (3 Bft) 100,00 %
18.11.2021 18:58 9,5 C 8,9 C 6,7 C 88 % 1029,1 hPa 0,0 l/m 0 min 0 min 0 W/m 9,7 km/h (2 Bft) 100,00 %
18.11.2021 19:00 9,6 C 8,9 C 6,7 C 88 % 1029,2 hPa 0,0 l/m 0 min 0 min 0 W/m 6,4 km/h (2 Bft) 100,00 %
18.11.2021 19:02 9,6 C 8,9 C 6,7 C 88 % 1029,2 hPa 0,0 l/m 0 min 0 min 0 W/m 6,4 km/h (2 Bft) 97,83 %
18.11.2021 19:04 9,6 C 8,9 C 6,7 C 88 % 1029,2 hPa 0,0 l/m 0 min 0 min 0 W/m 6,4 km/h (2 Bft) 100,00 %
18.11.2021 19:06 9,6 C 8,9 C 6,7 C 88 % 1029,2 hPa 0,0 l/m 0 min 0 min 0 W/m 16,1 km/h (3 Bft) 100,00 %
18.11.2021 19:08 9,6 C 8,9 C 6,7 C 88 % 1029,3 hPa 0,0 l/m 0 min 0 min 0 W/m 9,7 km/h (2 Bft) 97,87 %
18.11.2021 19:10 9,6 C 8,9 C 6,7 C 88 % 1029,3 hPa 0,0 l/m 0 min 0 min 0 W/m 12,9 km/h (3 Bft) 100,00 %
18.11.2021 19:12 9,6 C 8,9 C 6,7 C 88 % 1029,3 hPa 0,0 l/m 0 min 0 min 0 W/m 19,3 km/h (3 Bft) 97,83 %
18.11.2021 19:14 9,6 C 8,9 C 6,7 C 88 % 1029,3 hPa 0,0 l/m 0 min 0 min 0 W/m 16,1 km/h (3 Bft) 100,00 %
18.11.2021 19:16 9,6 C 8,9 C 6,7 C 88 % 1029,4 hPa 0,0 l/m 0 min 0 min 0 W/m 6,4 km/h (2 Bft) 100,00 %
18.11.2021 19:18 9,6 C 8,9 C 6,7 C 88 % 1029,4 hPa 0,0 l/m 0 min 0 min 0 W/m 12,9 km/h (3 Bft) 97,87 %
18.11.2021 19:20 9,6 C 8,9 C 6,7 C 88 % 1029,4 hPa 0,0 l/m 0 min 0 min 0 W/m 12,9 km/h (3 Bft) 95,74 %
18.11.2021 19:22 9,6 C 8,9 C 6,7 C 88 % 1029,4 hPa 0,0 l/m 0 min 0 min 0 W/m 6,4 km/h (2 Bft) 93,62 %
18.11.2021 19:24 9,6 C 8,9 C 6,7 C 88 % 1029,4 hPa 0,0 l/m 0 min 0 min 0 W/m 12,9 km/h (3 Bft) 95,65 %
18.11.2021 19:26 9,7 C 8,9 C 6,7 C 88 % 1029,3 hPa 0,0 l/m 0 min 0 min 0 W/m 6,4 km/h (2 Bft) 65,96 %
18.11.2021 19:28 9,7 C 9,4 C 6,7 C 88 % 1029,4 hPa 0,0 l/m 0 min 0 min 0 W/m 16,1 km/h (3 Bft) 81,40 %
18.11.2021 19:30 9,7 C 9,4 C 6,7 C 88 % 1029,4 hPa 0,0 l/m 0 min 0 min 0 W/m 16,1 km/h (3 Bft) 95,74 %
18.11.2021 19:32 9,7 C 9,4 C 6,7 C 88 % 1029,3 hPa 0,0 l/m 0 min 0 min 0 W/m 12,9 km/h (3 Bft) 95,74 %
18.11.2021 19:34 9,7 C 9,4 C 6,7 C 88 % 1029,4 hPa 0,0 l/m 0 min 0 min 0 W/m 6,4 km/h (2 Bft) 95,74 %
18.11.2021 19:36 9,7 C 9,4 C 6,7 C 88 % 1029,3 hPa 0,0 l/m 0 min 0 min 0 W/m 9,7 km/h (2 Bft) 97,83 %
18.11.2021 19:38 9,7 C 9,4 C 6,7 C 88 % 1029,4 hPa 0,0 l/m 0 min 0 min 0 W/m 6,4 km/h (2 Bft) 93,62 %
18.11.2021 19:40 9,8 C 9,4 C 6,7 C 88 % 1029,4 hPa 0,0 l/m 0 min 0 min 0 W/m 12,9 km/h (3 Bft) 95,74 %
18.11.2021 19:42 9,8 C 9,4 C 7,2 C 88 % 1029,3 hPa 0,0 l/m 0 min 0 min 0 W/m 6,4 km/h (2 Bft) 93,62 %
18.11.2021 19:44 9,8 C 9,4 C 7,2 C 88 % 1029,3 hPa 0,0 l/m 0 min 0 min 0 W/m 25,7 km/h (4 Bft) 93,62 %
18.11.2021 19:46 9,8 C 9,4 C 7,2 C 88 % 1029,3 hPa 0,0 l/m 0 min 0 min 0 W/m 25,7 km/h (4 Bft) 91,30 %
18.11.2021 19:48 9,8 C 9,4 C 7,2 C 88 % 1029,3 hPa 0,0 l/m 0 min 0 min 0 W/m 12,9 km/h (3 Bft) 93,62 %
18.11.2021 19:50 9,8 C 9,4 C 7,2 C 88 % 1029,3 hPa 0,0 l/m 0 min 0 min 0 W/m 6,4 km/h (2 Bft) 93,62 %
18.11.2021 19:52 9,8 C 9,4 C 7,2 C 88 % 1029,3 hPa 0,0 l/m 0 min 0 min 0 W/m 12,9 km/h (3 Bft) 93,62 %
18.11.2021 19:54 9,8 C 9,4 C 7,2 C 88 % 1029,3 hPa 0,0 l/m 0 min 0 min 0 W/m 16,1 km/h (3 Bft) 95,74 %
18.11.2021 19:56 9,8 C 9,4 C 7,2 C 88 % 1029,3 hPa 0,0 l/m 0 min 0 min 0 W/m 16,1 km/h (3 Bft) 93,62 %
18.11.2021 19:58 9,8 C 9,4 C 7,2 C 88 % 1029,2 hPa 0,0 l/m 0 min 0 min 0 W/m 12,9 km/h (3 Bft) 95,65 %
18.11.2021 20:00 9,8 C 9,4 C 7,2 C 88 % 1029,2 hPa 0,0 l/m 0 min 0 min 0 W/m 16,1 km/h (3 Bft) 93,62 %
18.11.2021 20:02 9,8 C 9,4 C 7,2 C 88 % 1029,3 hPa 0,0 l/m 0 min 0 min 0 W/m 22,5 km/h (4 Bft) 95,74 %
18.11.2021 20:04 9,8 C 9,4 C 7,2 C 88 % 1029,2 hPa 0,0 l/m 0 min 0 min 0 W/m 12,9 km/h (3 Bft) 95,74 %
18.11.2021 20:06 9,8 C 9,4 C 7,2 C 88 % 1029,2 hPa 0,0 l/m 0 min 0 min 0 W/m 22,5 km/h (4 Bft) 95,74 %
18.11.2021 20:08 9,8 C 9,4 C 7,2 C 88 % 1029,2 hPa 0,0 l/m 0 min 0 min 0 W/m 9,7 km/h (2 Bft) 93,62 %
18.11.2021 20:10 9,8 C 9,4 C 7,2 C 88 % 1029,2 hPa 0,0 l/m 0 min 0 min 0 W/m 16,1 km/h (3 Bft) 97,22 %
18.11.2021 20:12 9,8 C 9,4 C 7,2 C 88 % 1029,2 hPa 0,0 l/m 0 min 0 min 0 W/m 19,3 km/h (3 Bft) 95,74 %
18.11.2021 20:14 9,8 C 9,4 C 7,2 C 88 % 1029,1 hPa 0,0 l/m 0 min 0 min 0 W/m 12,9 km/h (3 Bft) 97,87 %
18.11.2021 20:16 9,8 C 9,4 C 7,2 C 88 % 1029,1 hPa 0,0 l/m 0 min 0 min 0 W/m 29,0 km/h (5 Bft) 97,83 %
18.11.2021 20:18 9,8 C 9,4 C 7,2 C 88 % 1029,2 hPa 0,0 l/m 0 min 0 min 0 W/m 19,3 km/h (3 Bft) 97,87 %
18.11.2021 20:20 9,8 C 9,4 C 7,2 C 88 % 1029,2 hPa 0,0 l/m 0 min 0 min 0 W/m 22,5 km/h (4 Bft) 97,87 %
18.11.2021 20:22 9,8 C 9,4 C 7,2 C 88 % 1029,3 hPa 0,0 l/m 0 min 0 min 0 W/m 29,0 km/h (5 Bft) 97,87 %
18.11.2021 20:24 9,8 C 9,4 C 7,2 C 88 % 1029,3 hPa 0,0 l/m 0 min 0 min 0 W/m 12,9 km/h (3 Bft) 97,87 %
18.11.2021 20:26 9,8 C 9,4 C 7,2 C 88 % 1029,3 hPa 0,0 l/m 0 min 0 min 0 W/m 12,9 km/h (3 Bft) 93,62 %
18.11.2021 20:28 9,8 C 9,4 C 7,2 C 88 % 1029,3 hPa 0,0 l/m 0 min 0 min 0 W/m 19,3 km/h (3 Bft) 97,83 %
18.11.2021 20:30 9,8 C 9,4 C 7,2 C 88 % 1029,4 hPa 0,0 l/m 0 min 0 min 0 W/m 12,9 km/h (3 Bft) 97,87 %
18.11.2021 20:32 9,8 C 9,4 C 7,2 C 88 % 1029,3 hPa 0,0 l/m 0 min 0 min 0 W/m 9,7 km/h (2 Bft) 93,62 %
18.11.2021 20:34 9,8 C 9,4 C 7,2 C 88 % 1029,3 hPa 0,0 l/m 0 min 0 min 0 W/m 12,9 km/h (3 Bft) 100,00 %
18.11.2021 20:36 9,8 C 9,4 C 7,2 C 88 % 1029,4 hPa 0,0 l/m 0 min 0 min 0 W/m 9,7 km/h (2 Bft) 96,15 %
18.11.2021 20:38 9,8 C 9,4 C 6,7 C 88 % 1029,4 hPa 0,0 l/m 0 min 0 min 0 W/m 12,9 km/h (3 Bft) 97,62 %
18.11.2021 20:40 9,8 C 9,4 C 6,7 C 88 % 1029,4 hPa 0,0 l/m 0 min 0 min 0 W/m 6,4 km/h (2 Bft) 97,83 %
18.11.2021 20:42 9,8 C 9,4 C 6,7 C 88 % 1029,4 hPa 0,0 l/m 0 min 0 min 0 W/m 12,9 km/h (3 Bft) 100,00 %
18.11.2021 20:44 9,8 C 9,4 C 6,7 C 88 % 1029,4 hPa 0,0 l/m 0 min 0 min 0 W/m 16,1 km/h (3 Bft) 100,00 %
18.11.2021 20:46 9,8 C 8,9 C 6,7 C 88 % 1029,5 hPa 0,0 l/m 0 min 0 min 0 W/m 12,9 km/h (3 Bft) 95,74 %
18.11.2021 20:48 9,8 C 9,4 C 6,7 C 88 % 1029,4 hPa 0,0 l/m 0 min 0 min 0 W/m 9,7 km/h (2 Bft) 93,62 %
18.11.2021 20:50 9,8 C 9,4 C 6,7 C 88 % 1029,5 hPa 0,0 l/m 0 min 0 min 0 W/m 16,1 km/h (3 Bft) 100,00 %
18.11.2021 20:52 9,8 C 9,4 C 6,7 C 88 % 1029,5 hPa 0,0 l/m 0 min 0 min 0 W/m 12,9 km/h (3 Bft) 100,00 %
18.11.2021 20:54 9,8 C 9,4 C 6,7 C 88 % 1029,5 hPa 0,0 l/m 0 min 0 min 0 W/m 6,4 km/h (2 Bft) 97,87 %
18.11.2021 20:56 9,8 C 9,4 C 6,7 C 88 % 1029,5 hPa 0,0 l/m 0 min 0 min 0 W/m 3,2 km/h (1 Bft) 100,00 %
18.11.2021 20:58 9,8 C 8,9 C 6,7 C 88 % 1029,6 hPa 0,0 l/m 0 min 0 min 0 W/m 12,9 km/h (3 Bft) 100,00 %
18.11.2021 21:00 9,8 C 9,4 C 6,7 C 88 % 1029,5 hPa 0,0 l/m 0 min 0 min 0 W/m 16,1 km/h (3 Bft) 100,00 %
18.11.2021 21:02 9,8 C 9,4 C 6,7 C 89 % 1029,6 hPa 0,0 l/m 0 min 0 min 0 W/m 12,9 km/h (3 Bft) 100,00 %
18.11.2021 21:04 9,8 C 9,4 C 7,2 C 89 % 1029,6 hPa 0,0 l/m 0 min 0 min 0 W/m 6,4 km/h (2 Bft) 100,00 %
18.11.2021 21:06 9,8 C 9,4 C 6,7 C 89 % 1029,7 hPa 0,0 l/m 0 min 0 min 0 W/m 9,7 km/h (2 Bft) 100,00 %
18.11.2021 21:08 9,8 C 9,4 C 6,7 C 89 % 1029,7 hPa 0,0 l/m 0 min 0 min 0 W/m 6,4 km/h (2 Bft) 100,00 %
18.11.2021 21:10 9,8 C 9,4 C 6,7 C 89 % 1029,7 hPa 0,0 l/m 0 min 0 min 0 W/m 12,9 km/h (3 Bft) 100,00 %
18.11.2021 21:12 9,8 C 9,4 C 6,7 C 89 % 1029,7 hPa 0,0 l/m 0 min 0 min 0 W/m 9,7 km/h (2 Bft) 97,87 %
18.11.2021 21:14 9,8 C 9,4 C 6,7 C 89 % 1029,7 hPa 0,0 l/m 0 min 0 min 0 W/m 19,3 km/h (3 Bft) 100,00 %
18.11.2021 21:16 9,8 C 8,9 C 6,7 C 89 % 1029,7 hPa 0,0 l/m 0 min 0 min 0 W/m 6,4 km/h (2 Bft) 100,00 %
18.11.2021 21:18 9,8 C 8,9 C 6,7 C 89 % 1029,7 hPa 0,0 l/m 0 min 0 min 0 W/m 6,4 km/h (2 Bft) 54,55 %
18.11.2021 21:20 9,8 C 8,9 C 6,7 C 89 % 1029,7 hPa 0,0 l/m 0 min 0 min 0 W/m 16,1 km/h (3 Bft) 95,74 %
18.11.2021 21:22 9,8 C 8,9 C 6,7 C 89 % 1029,7 hPa 0,0 l/m 0 min 0 min 0 W/m 6,4 km/h (2 Bft) 95,65 %
18.11.2021 21:24 9,8 C 8,9 C 6,7 C 89 % 1029,7 hPa 0,0 l/m 0 min 0 min 0 W/m 6,4 km/h (2 Bft) 97,87 %
18.11.2021 21:26 9,7 C 8,9 C 6,7 C 89 % 1029,7 hPa 0,0 l/m 0 min 0 min 0 W/m 16,1 km/h (3 Bft) 97,87 %
18.11.2021 21:28 9,7 C 8,9 C 6,7 C 89 % 1029,7 hPa 0,0 l/m 0 min 0 min 0 W/m 16,1 km/h (3 Bft) 97,87 %
18.11.2021 21:30 9,7 C 8,9 C 6,7 C 90 % 1029,7 hPa 0,0 l/m 0 min 0 min 0 W/m 9,7 km/h (2 Bft) 97,87 %
18.11.2021 21:32 9,7 C 8,9 C 6,7 C 90 % 1029,7 hPa 0,0 l/m 0 min 0 min 0 W/m 9,7 km/h (2 Bft) 97,83 %
18.11.2021 21:34 9,7 C 8,9 C 6,7 C 90 % 1029,7 hPa 0,0 l/m 0 min 0 min 0 W/m 19,3 km/h (3 Bft) 97,87 %
18.11.2021 21:36 9,6 C 8,9 C 6,7 C 90 % 1029,7 hPa 0,0 l/m 0 min 0 min 0 W/m 6,4 km/h (2 Bft) 97,87 %
18.11.2021 21:38 9,6 C 8,9 C 6,7 C 90 % 1029,7 hPa 0,0 l/m 0 min 0 min 0 W/m 16,1 km/h (3 Bft) 95,74 %
18.11.2021 21:40 9,6 C 8,9 C 6,7 C 90 % 1029,7 hPa 0,0 l/m 0 min 0 min 0 W/m 12,9 km/h (3 Bft) 97,87 %
18.11.2021 21:42 9,6 C 8,9 C 6,7 C 90 % 1029,7 hPa 0,0 l/m 0 min 0 min 0 W/m 16,1 km/h (3 Bft) 97,87 %
18.11.2021 21:44 9,6 C 8,9 C 6,7 C 90 % 1029,8 hPa 0,0 l/m 0 min 0 min 0 W/m 25,7 km/h (4 Bft) 95,74 %
18.11.2021 21:46 9,6 C 8,9 C 6,7 C 91 % 1029,7 hPa 0,0 l/m 0 min 0 min 0 W/m 16,1 km/h (3 Bft) 97,83 %
18.11.2021 21:48 9,6 C 8,9 C 6,7 C 91 % 1029,8 hPa 0,0 l/m 0 min 0 min 0 W/m 9,7 km/h (2 Bft) 95,74 %
18.11.2021 21:50 9,6 C 8,9 C 6,7 C 91 % 1029,8 hPa 0,0 l/m 0 min 0 min 0 W/m 9,7 km/h (2 Bft) 95,74 %
18.11.2021 21:52 9,6 C 8,9 C 6,7 C 91 % 1029,8 hPa 0,0 l/m 0 min 0 min 0 W/m 12,9 km/h (3 Bft) 100,00 %
18.11.2021 21:54 9,5 C 8,9 C 6,7 C 91 % 1029,8 hPa 0,0 l/m 0 min 0 min 0 W/m 16,1 km/h (3 Bft) 97,87 %
18.11.2021 21:56 9,5 C 8,9 C 6,7 C 91 % 1029,9 hPa 0,0 l/m 0 min 0 min 0 W/m 12,9 km/h (3 Bft) 97,83 %
18.11.2021 21:58 9,5 C 8,9 C 6,7 C 91 % 1029,9 hPa 0,0 l/m 0 min 0 min 0 W/m 12,9 km/h (3 Bft) 97,87 %
18.11.2021 22:00 9,5 C 8,9 C 6,7 C 91 % 1029,9 hPa 0,0 l/m 0 min 0 min 0 W/m 12,9 km/h (3 Bft) 97,87 %
18.11.2021 22:02 9,5 C 8,9 C 6,7 C 91 % 1030,0 hPa 0,0 l/m 0 min 0 min 0 W/m 6,4 km/h (2 Bft) 97,87 %
18.11.2021 22:04 9,5 C 8,9 C 6,7 C 91 % 1030,0 hPa 0,0 l/m 0 min 0 min 0 W/m 12,9 km/h (3 Bft) 95,74 %
18.11.2021 22:06 9,5 C 8,9 C 6,7 C 91 % 1030,0 hPa 0,0 l/m 0 min 0 min 0 W/m 6,4 km/h (2 Bft) 97,87 %
18.11.2021 22:08 9,5 C 8,9 C 6,7 C 91 % 1030,0 hPa 0,0 l/m 0 min 0 min 0 W/m 12,9 km/h (3 Bft) 97,83 %
18.11.2021 22:10 9,5 C 8,9 C 6,7 C 92 % 1030,0 hPa 0,0 l/m 0 min 0 min 0 W/m 12,9 km/h (3 Bft) 97,87 %
18.11.2021 22:12 9,5 C 8,9 C 6,7 C 92 % 1030,0 hPa 0,0 l/m 0 min 0 min 0 W/m 12,9 km/h (3 Bft) 97,87 %
18.11.2021 22:14 9,5 C 8,9 C 6,7 C 92 % 1030,0 hPa 0,0 l/m 0 min 0 min 0 W/m 6,4 km/h (2 Bft) 97,87 %
18.11.2021 22:16 9,5 C 8,9 C 6,7 C 92 % 1030,0 hPa 0,0 l/m 0 min 0 min 0 W/m 12,9 km/h (3 Bft) 97,87 %
18.11.2021 22:18 9,5 C 8,9 C 6,7 C 92 % 1030,0 hPa 0,0 l/m 0 min 0 min 0 W/m 12,9 km/h (3 Bft) 97,87 %
18.11.2021 22:20 9,5 C 8,9 C 6,7 C 92 % 1030,0 hPa 0,0 l/m 0 min 0 min 0 W/m 9,7 km/h (2 Bft) 97,83 %
18.11.2021 22:22 9,5 C 8,9 C 6,7 C 92 % 1030,0 hPa 0,0 l/m 0 min 0 min 0 W/m 19,3 km/h (3 Bft) 100,00 %
18.11.2021 22:24 9,5 C 8,9 C 6,7 C 92 % 1030,0 hPa 0,0 l/m 0 min 0 min 0 W/m 12,9 km/h (3 Bft) 97,87 %
18.11.2021 22:26 9,5 C 8,9 C 6,7 C 92 % 1030,0 hPa 0,0 l/m 0 min 0 min 0 W/m 12,9 km/h (3 Bft) 97,87 %
18.11.2021 22:28 9,5 C 8,9 C 6,7 C 92 % 1029,9 hPa 0,0 l/m 0 min 0 min 0 W/m 9,7 km/h (2 Bft) 97,87 %
18.11.2021 22:30 9,4 C 8,9 C 6,7 C 92 % 1029,9 hPa 0,0 l/m 0 min 0 min 0 W/m 16,1 km/h (3 Bft) 97,87 %
18.11.2021 22:32 9,4 C 8,9 C 6,7 C 92 % 1029,9 hPa 0,0 l/m 0 min 0 min 0 W/m 6,4 km/h (2 Bft) 95,65 %
18.11.2021 22:34 9,4 C 8,9 C 6,7 C 92 % 1029,9 hPa 0,0 l/m 0 min 0 min 0 W/m 19,3 km/h (3 Bft) 95,74 %
18.11.2021 22:36 9,4 C 8,9 C 6,7 C 92 % 1029,9 hPa 0,0 l/m 0 min 0 min 0 W/m 22,5 km/h (4 Bft) 97,87 %
18.11.2021 22:38 9,4 C 8,9 C 6,7 C 92 % 1029,9 hPa 0,0 l/m 0 min 0 min 0 W/m 9,7 km/h (2 Bft) 97,87 %
18.11.2021 22:40 9,4 C 8,9 C 6,7 C 92 % 1029,9 hPa 0,0 l/m 0 min 0 min 0 W/m 16,1 km/h (3 Bft) 95,74 %
18.11.2021 22:42 9,4 C 8,9 C 6,7 C 92 % 1030,0 hPa 0,0 l/m 0 min 0 min 0 W/m 19,3 km/h (3 Bft) 97,83 %
18.11.2021 22:44 9,4 C 8,9 C 6,7 C 92 % 1029,9 hPa 0,0 l/m 0 min 0 min 0 W/m 12,9 km/h (3 Bft) 97,87 %
18.11.2021 22:46 9,4 C 8,9 C 6,7 C 93 % 1030,0 hPa 0,0 l/m 0 min 0 min 0 W/m 9,7 km/h (2 Bft) 93,62 %
18.11.2021 22:48 9,4 C 8,9 C 6,7 C 92 % 1030,1 hPa 0,0 l/m 0 min 0 min 0 W/m 12,9 km/h (3 Bft) 97,87 %
18.11.2021 22:50 9,4 C 8,9 C 6,7 C 93 % 1030,1 hPa 0,0 l/m 0 min 0 min 0 W/m 16,1 km/h (3 Bft) 97,87 %
18.11.2021 22:52 9,4 C 8,9 C 6,7 C 93 % 1030,1 hPa 0,0 l/m 0 min 0 min 0 W/m 12,9 km/h (3 Bft) 95,74 %
18.11.2021 22:54 9,4 C 8,9 C 6,7 C 93 % 1030,1 hPa 0,0 l/m 0 min 0 min 0 W/m 22,5 km/h (4 Bft) 95,65 %
18.11.2021 22:56 9,4 C 8,3 C 6,7 C 93 % 1030,1 hPa 0,0 l/m 0 min 0 min 0 W/m 16,1 km/h (3 Bft) 97,87 %
18.11.2021 22:58 9,3 C 8,3 C 6,7 C 93 % 1030,1 hPa 0,0 l/m 0 min 0 min 0 W/m 19,3 km/h (3 Bft) 97,87 %
18.11.2021 23:00 9,3 C 8,3 C 6,7 C 93 % 1030,1 hPa 0,0 l/m 0 min 0 min 0 W/m 16,1 km/h (3 Bft) 95,74 %
18.11.2021 23:02 9,3 C 8,3 C 6,7 C 93 % 1030,0 hPa 0,0 l/m 0 min 0 min 0 W/m 6,4 km/h (2 Bft) 97,87 %
18.11.2021 23:04 9,3 C 8,3 C 6,7 C 93 % 1030,1 hPa 0,0 l/m 0 min 0 min 0 W/m 16,1 km/h (3 Bft) 93,62 %
18.11.2021 23:06 9,3 C 8,3 C 6,7 C 93 % 1030,0 hPa 0,0 l/m 0 min 0 min 0 W/m 12,9 km/h (3 Bft) 97,83 %
18.11.2021 23:08 9,3 C 8,3 C 6,7 C 93 % 1030,0 hPa 0,0 l/m 0 min 0 min 0 W/m 9,7 km/h (2 Bft) 97,87 %
18.11.2021 23:10 9,3 C 8,3 C 6,7 C 93 % 1030,0 hPa 0,0 l/m 0 min 0 min 0 W/m 12,9 km/h (3 Bft) 97,87 %
18.11.2021 23:12 9,3 C 8,3 C 6,7 C 94 % 1030,0 hPa 0,0 l/m 0 min 0 min 0 W/m 12,9 km/h (3 Bft) 97,87 %
18.11.2021 23:14 9,3 C 8,3 C 6,7 C 94 % 1030,0 hPa 0,0 l/m 0 min 0 min 0 W/m 9,7 km/h (2 Bft) 95,74 %
18.11.2021 23:16 9,3 C 8,3 C 6,7 C 93 % 1030,0 hPa 0,0 l/m 0 min 0 min 0 W/m 12,9 km/h (3 Bft) 97,87 %
18.11.2021 23:18 9,3 C 8,3 C 6,7 C 94 % 1030,0 hPa 0,0 l/m 0 min 0 min 0 W/m 12,9 km/h (3 Bft) 95,74 %
18.11.2021 23:20 9,3 C 8,3 C 6,7 C 94 % 1030,0 hPa 0,0 l/m 0 min 0 min 0 W/m 12,9 km/h (3 Bft) 93,62 %
18.11.2021 23:22 9,3 C 8,3 C 6,7 C 94 % 1030,0 hPa 0,0 l/m 0 min 0 min 0 W/m 12,9 km/h (3 Bft) 95,74 %
18.11.2021 23:24 9,3 C 8,3 C 6,7 C 94 % 1029,9 hPa 0,0 l/m 0 min 0 min 0 W/m 6,4 km/h (2 Bft) 97,87 %
18.11.2021 23:26 9,3 C 8,3 C 6,7 C 94 % 1029,9 hPa 0,0 l/m 0 min 0 min 0 W/m 6,4 km/h (2 Bft) 93,62 %
18.11.2021 23:28 9,3 C 8,3 C 6,7 C 94 % 1029,9 hPa 0,0 l/m 0 min 0 min 0 W/m 16,1 km/h (3 Bft) 97,83 %
18.11.2021 23:30 9,3 C 8,3 C 6,7 C 94 % 1029,9 hPa 0,0 l/m 0 min 0 min 0 W/m 9,7 km/h (2 Bft) 98,00 %
18.11.2021 23:32 9,3 C 8,3 C 6,7 C 94 % 1030,0 hPa 0,0 l/m 0 min 0 min 0 W/m 19,3 km/h (3 Bft) 97,87 %
18.11.2021 23:34 9,3 C 8,3 C 6,7 C 94 % 1029,9 hPa 0,0 l/m 0 min 0 min 0 W/m 12,9 km/h (3 Bft) 95,74 %
18.11.2021 23:36 9,3 C 8,3 C 6,7 C 94 % 1029,9 hPa 0,0 l/m 0 min 0 min 0 W/m 16,1 km/h (3 Bft) 95,74 %
18.11.2021 23:38 9,3 C 8,3 C 6,7 C 94 % 1029,9 hPa 0,0 l/m 0 min 0 min 0 W/m 12,9 km/h (3 Bft) 100,00 %
18.11.2021 23:40 9,3 C 8,3 C 6,7 C 94 % 1029,9 hPa 0,0 l/m 0 min 0 min 0 W/m 9,7 km/h (2 Bft) 97,87 %
18.11.2021 23:42 9,3 C 8,3 C 6,7 C 94 % 1029,9 hPa 0,0 l/m 0 min 0 min 0 W/m 12,9 km/h (3 Bft) 97,83 %
18.11.2021 23:44 9,3 C 8,3 C 6,7 C 94 % 1029,9 hPa 0,0 l/m 0 min 0 min 0 W/m 6,4 km/h (2 Bft) 95,74 %
18.11.2021 23:46 9,3 C 8,3 C 6,7 C 94 % 1029,9 hPa 0,0 l/m 0 min 0 min 0 W/m 12,9 km/h (3 Bft) 97,87 %
18.11.2021 23:48 9,3 C 8,3 C 6,7 C 94 % 1029,9 hPa 0,0 l/m 0 min 0 min 0 W/m 12,9 km/h (3 Bft) 100,00 %
18.11.2021 23:50 9,3 C 8,3 C 6,7 C 94 % 1029,9 hPa 0,0 l/m 0 min 0 min 0 W/m 12,9 km/h (3 Bft) 100,00 %
18.11.2021 23:52 9,3 C 8,3 C 6,7 C 94 % 1029,8 hPa 0,0 l/m 0 min 0 min 0 W/m 12,9 km/h (3 Bft) 100,00 %
18.11.2021 23:54 9,3 C 8,3 C 6,7 C 95 % 1029,8 hPa 0,0 l/m 0 min 0 min 0 W/m 9,7 km/h (2 Bft) 100,00 %
18.11.2021 23:56 9,2 C 8,3 C 6,7 C 95 % 1029,8 hPa 0,0 l/m 0 min 0 min 0 W/m 6,4 km/h (2 Bft) 97,87 %
18.11.2021 23:58 9,2 C 8,3 C 6,7 C 95 % 1029,8 hPa 0,0 l/m 0 min 0 min 0 W/m 6,4 km/h (2 Bft) 100,00 %
_ Min-Zeit 00:02 00:00 00:00 14:10 00:58 - - - - 00:00 08:30
Minimum _ 5,0 C 4,4 C 3,9 C 81 % 1027,0 hPa - - - - 0,0 km/h (0 Bft) 42,86 %
_ Max-Zeit 14:32 13:12 12:12 00:00 22:48 03:16 10:26 00:00 13:08 15:06 00:24
Maximum _ 11,1 C 15,0 C 8,3 C 97 % 1030,1 hPa 0,2 l/m 2 min 0 min 291 W/m 38,6 km/h
SW (5 Bft)
100,00 %
Durchschnitt _ 7,9 C 7,7 C 6,2 C 92 % 1028,7 hPa #0,2 l/m #2:38 h #0 min. 103 W/m 11,1 km/h (2 Bft) 97,14 %
© 2021 W. Hausmann